<?xml version="1.0" encoding="UTF-8" standalone="no" ?>
<gpx xmlns="http://www.topografix.com/GPX/1/1" xmlns:xsi="http://www.w3.org/2001/XMLSchema-instance" xsi:schemaLocation="http://www.topografix.com/GPX/1/1 http://www.topografix.com/GPX/1/1/gpx.xsd" version="1.1" creator="VisuGPX - https://www.visugpx.com">
  <metadata>
    <name>Murs - La grande blaque</name>
    <desc><![CDATA[
Balade au dessus de Murs jusqu'à la Grande Blaque.]]></desc>
  </metadata>
  <trk>
    <name><![CDATA[2020-02-24 13-50-37]]></name>
    <trkseg>
      <trkpt lat="43.95991" lon="5.24739">
        <ele>494.26</ele>
        <time>2020-02-24T08:27:38Z</time>
      </trkpt>
      <trkpt lat="43.95991" lon="5.24739">
        <ele>494.26</ele>
        <time>2020-02-24T08:27:39Z</time>
      </trkpt>
      <trkpt lat="43.96011" lon="5.2474">
        <ele>494.26</ele>
        <time>2020-02-24T08:27:58Z</time>
      </trkpt>
      <trkpt lat="43.96036" lon="5.24741">
        <ele>494.74</ele>
        <time>2020-02-24T08:28:18Z</time>
      </trkpt>
      <trkpt lat="43.96037" lon="5.24741">
        <ele>494.74</ele>
        <time>2020-02-24T08:28:19Z</time>
      </trkpt>
      <trkpt lat="43.96043" lon="5.24742">
        <ele>494.74</ele>
        <time>2020-02-24T08:28:24Z</time>
      </trkpt>
      <trkpt lat="43.96048" lon="5.24745">
        <ele>495.22</ele>
        <time>2020-02-24T08:28:28Z</time>
      </trkpt>
      <trkpt lat="43.96058" lon="5.24746">
        <ele>495.22</ele>
        <time>2020-02-24T08:28:36Z</time>
      </trkpt>
      <trkpt lat="43.96064" lon="5.24747">
        <ele>495.22</ele>
        <time>2020-02-24T08:28:40Z</time>
      </trkpt>
      <trkpt lat="43.96067" lon="5.24747">
        <ele>495.7</ele>
        <time>2020-02-24T08:28:42Z</time>
      </trkpt>
      <trkpt lat="43.96079" lon="5.24747">
        <ele>496.18</ele>
        <time>2020-02-24T08:28:50Z</time>
      </trkpt>
      <trkpt lat="43.96099" lon="5.24749">
        <ele>497.14</ele>
        <time>2020-02-24T08:29:05Z</time>
      </trkpt>
      <trkpt lat="43.96115" lon="5.2475">
        <ele>498.1</ele>
        <time>2020-02-24T08:29:18Z</time>
      </trkpt>
      <trkpt lat="43.96135" lon="5.24765">
        <ele>500.02</ele>
        <time>2020-02-24T08:29:37Z</time>
      </trkpt>
      <trkpt lat="43.96143" lon="5.24773">
        <ele>500.5</ele>
        <time>2020-02-24T08:29:45Z</time>
      </trkpt>
      <trkpt lat="43.9615" lon="5.24778">
        <ele>500.98</ele>
        <time>2020-02-24T08:29:53Z</time>
      </trkpt>
      <trkpt lat="43.96159" lon="5.2478">
        <ele>500.98</ele>
        <time>2020-02-24T08:30:01Z</time>
      </trkpt>
      <trkpt lat="43.96161" lon="5.24781">
        <ele>500.98</ele>
        <time>2020-02-24T08:30:03Z</time>
      </trkpt>
      <trkpt lat="43.96172" lon="5.24783">
        <ele>501.95</ele>
        <time>2020-02-24T08:30:11Z</time>
      </trkpt>
      <trkpt lat="43.9619" lon="5.24787">
        <ele>502.43</ele>
        <time>2020-02-24T08:30:26Z</time>
      </trkpt>
      <trkpt lat="43.9621" lon="5.2479">
        <ele>502.91</ele>
        <time>2020-02-24T08:30:40Z</time>
      </trkpt>
      <trkpt lat="43.96225" lon="5.24793">
        <ele>503.39</ele>
        <time>2020-02-24T08:30:53Z</time>
      </trkpt>
      <trkpt lat="43.96247" lon="5.24801">
        <ele>504.35</ele>
        <time>2020-02-24T08:31:12Z</time>
      </trkpt>
      <trkpt lat="43.96263" lon="5.24802">
        <ele>505.31</ele>
        <time>2020-02-24T08:31:28Z</time>
      </trkpt>
      <trkpt lat="43.96268" lon="5.24803">
        <ele>506.27</ele>
        <time>2020-02-24T08:31:33Z</time>
      </trkpt>
      <trkpt lat="43.96298" lon="5.24815">
        <ele>507.71</ele>
        <time>2020-02-24T08:31:56Z</time>
      </trkpt>
      <trkpt lat="43.96314" lon="5.24817">
        <ele>508.67</ele>
        <time>2020-02-24T08:32:09Z</time>
      </trkpt>
      <trkpt lat="43.96332" lon="5.24817">
        <ele>510.12</ele>
        <time>2020-02-24T08:32:23Z</time>
      </trkpt>
      <trkpt lat="43.96357" lon="5.24819">
        <ele>511.08</ele>
        <time>2020-02-24T08:32:41Z</time>
      </trkpt>
      <trkpt lat="43.96375" lon="5.24822">
        <ele>512.52</ele>
        <time>2020-02-24T08:32:54Z</time>
      </trkpt>
      <trkpt lat="43.96385" lon="5.24823">
        <ele>513.48</ele>
        <time>2020-02-24T08:33:02Z</time>
      </trkpt>
      <trkpt lat="43.96393" lon="5.24823">
        <ele>513.96</ele>
        <time>2020-02-24T08:33:07Z</time>
      </trkpt>
      <trkpt lat="43.96414" lon="5.24831">
        <ele>515.4</ele>
        <time>2020-02-24T08:33:27Z</time>
      </trkpt>
      <trkpt lat="43.96433" lon="5.24837">
        <ele>517.81</ele>
        <time>2020-02-24T08:33:44Z</time>
      </trkpt>
      <trkpt lat="43.9645" lon="5.24834">
        <ele>519.25</ele>
        <time>2020-02-24T08:33:58Z</time>
      </trkpt>
      <trkpt lat="43.96471" lon="5.2484">
        <ele>521.17</ele>
        <time>2020-02-24T08:34:15Z</time>
      </trkpt>
      <trkpt lat="43.96485" lon="5.24837">
        <ele>523.09</ele>
        <time>2020-02-24T08:34:31Z</time>
      </trkpt>
      <trkpt lat="43.96493" lon="5.24839">
        <ele>523.58</ele>
        <time>2020-02-24T08:34:36Z</time>
      </trkpt>
      <trkpt lat="43.96514" lon="5.24841">
        <ele>524.54</ele>
        <time>2020-02-24T08:34:51Z</time>
      </trkpt>
      <trkpt lat="43.96531" lon="5.24839">
        <ele>526.46</ele>
        <time>2020-02-24T08:35:07Z</time>
      </trkpt>
      <trkpt lat="43.96558" lon="5.24834">
        <ele>527.9</ele>
        <time>2020-02-24T08:35:28Z</time>
      </trkpt>
      <trkpt lat="43.9656" lon="5.24834">
        <ele>528.38</ele>
        <time>2020-02-24T08:35:30Z</time>
      </trkpt>
      <trkpt lat="43.96583" lon="5.24836">
        <ele>529.82</ele>
        <time>2020-02-24T08:35:49Z</time>
      </trkpt>
      <trkpt lat="43.96604" lon="5.24841">
        <ele>531.27</ele>
        <time>2020-02-24T08:36:07Z</time>
      </trkpt>
      <trkpt lat="43.9662" lon="5.24836">
        <ele>532.23</ele>
        <time>2020-02-24T08:36:22Z</time>
      </trkpt>
      <trkpt lat="43.96624" lon="5.24836">
        <ele>532.23</ele>
        <time>2020-02-24T08:36:24Z</time>
      </trkpt>
      <trkpt lat="43.96634" lon="5.24836">
        <ele>532.71</ele>
        <time>2020-02-24T08:36:36Z</time>
      </trkpt>
      <trkpt lat="43.96635" lon="5.24835">
        <ele>531.75</ele>
        <time>2020-02-24T08:37:00Z</time>
      </trkpt>
      <trkpt lat="43.96636" lon="5.24834">
        <ele>532.71</ele>
        <time>2020-02-24T08:38:03Z</time>
      </trkpt>
      <trkpt lat="43.96644" lon="5.24839">
        <ele>533.19</ele>
        <time>2020-02-24T08:38:08Z</time>
      </trkpt>
      <trkpt lat="43.96654" lon="5.24849">
        <ele>533.19</ele>
        <time>2020-02-24T08:38:16Z</time>
      </trkpt>
      <trkpt lat="43.96675" lon="5.24856">
        <ele>530.79</ele>
        <time>2020-02-24T08:38:34Z</time>
      </trkpt>
      <trkpt lat="43.96697" lon="5.24864">
        <ele>530.79</ele>
        <time>2020-02-24T08:38:50Z</time>
      </trkpt>
      <trkpt lat="43.96718" lon="5.24867">
        <ele>531.27</ele>
        <time>2020-02-24T08:39:07Z</time>
      </trkpt>
      <trkpt lat="43.96743" lon="5.24876">
        <ele>532.23</ele>
        <time>2020-02-24T08:39:25Z</time>
      </trkpt>
      <trkpt lat="43.96768" lon="5.24885">
        <ele>532.71</ele>
        <time>2020-02-24T08:39:45Z</time>
      </trkpt>
      <trkpt lat="43.96792" lon="5.24889">
        <ele>534.15</ele>
        <time>2020-02-24T08:40:03Z</time>
      </trkpt>
      <trkpt lat="43.968" lon="5.24891">
        <ele>534.15</ele>
        <time>2020-02-24T08:40:10Z</time>
      </trkpt>
      <trkpt lat="43.96805" lon="5.24892">
        <ele>534.63</ele>
        <time>2020-02-24T08:40:15Z</time>
      </trkpt>
      <trkpt lat="43.96824" lon="5.24896">
        <ele>535.11</ele>
        <time>2020-02-24T08:40:29Z</time>
      </trkpt>
      <trkpt lat="43.9684" lon="5.24901">
        <ele>536.07</ele>
        <time>2020-02-24T08:40:43Z</time>
      </trkpt>
      <trkpt lat="43.96848" lon="5.24894">
        <ele>536.07</ele>
        <time>2020-02-24T08:40:57Z</time>
      </trkpt>
      <trkpt lat="43.96857" lon="5.24885">
        <ele>537.03</ele>
        <time>2020-02-24T08:41:11Z</time>
      </trkpt>
      <trkpt lat="43.96861" lon="5.24887">
        <ele>537.03</ele>
        <time>2020-02-24T08:41:15Z</time>
      </trkpt>
      <trkpt lat="43.96863" lon="5.24893">
        <ele>537.03</ele>
        <time>2020-02-24T08:41:28Z</time>
      </trkpt>
      <trkpt lat="43.96875" lon="5.24904">
        <ele>537.99</ele>
        <time>2020-02-24T08:41:41Z</time>
      </trkpt>
      <trkpt lat="43.96891" lon="5.24911">
        <ele>538.48</ele>
        <time>2020-02-24T08:41:56Z</time>
      </trkpt>
      <trkpt lat="43.9691" lon="5.24915">
        <ele>539.44</ele>
        <time>2020-02-24T08:42:12Z</time>
      </trkpt>
      <trkpt lat="43.96937" lon="5.24928">
        <ele>541.36</ele>
        <time>2020-02-24T08:42:35Z</time>
      </trkpt>
      <trkpt lat="43.96952" lon="5.24934">
        <ele>542.32</ele>
        <time>2020-02-24T08:42:47Z</time>
      </trkpt>
      <trkpt lat="43.96968" lon="5.24939">
        <ele>542.8</ele>
        <time>2020-02-24T08:43:01Z</time>
      </trkpt>
      <trkpt lat="43.96988" lon="5.24946">
        <ele>543.76</ele>
        <time>2020-02-24T08:43:17Z</time>
      </trkpt>
      <trkpt lat="43.96993" lon="5.24946">
        <ele>544.72</ele>
        <time>2020-02-24T08:43:22Z</time>
      </trkpt>
      <trkpt lat="43.97009" lon="5.24945">
        <ele>545.69</ele>
        <time>2020-02-24T08:43:38Z</time>
      </trkpt>
      <trkpt lat="43.97016" lon="5.24948">
        <ele>546.17</ele>
        <time>2020-02-24T08:43:46Z</time>
      </trkpt>
      <trkpt lat="43.97027" lon="5.2495">
        <ele>546.17</ele>
        <time>2020-02-24T08:43:55Z</time>
      </trkpt>
      <trkpt lat="43.9703" lon="5.24949">
        <ele>546.17</ele>
        <time>2020-02-24T08:43:57Z</time>
      </trkpt>
      <trkpt lat="43.97047" lon="5.24953">
        <ele>547.13</ele>
        <time>2020-02-24T08:44:11Z</time>
      </trkpt>
      <trkpt lat="43.97051" lon="5.24954">
        <ele>547.61</ele>
        <time>2020-02-24T08:44:14Z</time>
      </trkpt>
      <trkpt lat="43.97068" lon="5.2496">
        <ele>548.57</ele>
        <time>2020-02-24T08:44:26Z</time>
      </trkpt>
      <trkpt lat="43.97082" lon="5.24966">
        <ele>549.05</ele>
        <time>2020-02-24T08:44:43Z</time>
      </trkpt>
      <trkpt lat="43.97083" lon="5.24964">
        <ele>548.09</ele>
        <time>2020-02-24T08:45:15Z</time>
      </trkpt>
      <trkpt lat="43.97083" lon="5.24965">
        <ele>548.57</ele>
        <time>2020-02-24T08:45:47Z</time>
      </trkpt>
      <trkpt lat="43.97081" lon="5.24964">
        <ele>548.57</ele>
        <time>2020-02-24T08:46:15Z</time>
      </trkpt>
      <trkpt lat="43.97081" lon="5.24964">
        <ele>548.57</ele>
        <time>2020-02-24T08:46:41Z</time>
      </trkpt>
      <trkpt lat="43.97076" lon="5.24966">
        <ele>548.57</ele>
        <time>2020-02-24T08:47:13Z</time>
      </trkpt>
      <trkpt lat="43.97088" lon="5.24958">
        <ele>549.53</ele>
        <time>2020-02-24T08:47:39Z</time>
      </trkpt>
      <trkpt lat="43.97111" lon="5.24959">
        <ele>550.01</ele>
        <time>2020-02-24T08:47:57Z</time>
      </trkpt>
      <trkpt lat="43.97123" lon="5.24958">
        <ele>551.93</ele>
        <time>2020-02-24T08:48:13Z</time>
      </trkpt>
      <trkpt lat="43.97128" lon="5.24957">
        <ele>551.93</ele>
        <time>2020-02-24T08:48:16Z</time>
      </trkpt>
      <trkpt lat="43.97144" lon="5.24973">
        <ele>552.9</ele>
        <time>2020-02-24T08:48:33Z</time>
      </trkpt>
      <trkpt lat="43.97148" lon="5.24974">
        <ele>552.9</ele>
        <time>2020-02-24T08:48:36Z</time>
      </trkpt>
      <trkpt lat="43.97161" lon="5.24975">
        <ele>553.86</ele>
        <time>2020-02-24T08:48:45Z</time>
      </trkpt>
      <trkpt lat="43.97181" lon="5.24981">
        <ele>553.86</ele>
        <time>2020-02-24T08:48:59Z</time>
      </trkpt>
      <trkpt lat="43.97193" lon="5.24988">
        <ele>554.82</ele>
        <time>2020-02-24T08:49:11Z</time>
      </trkpt>
      <trkpt lat="43.97216" lon="5.24996">
        <ele>555.3</ele>
        <time>2020-02-24T08:49:32Z</time>
      </trkpt>
      <trkpt lat="43.97242" lon="5.25003">
        <ele>556.74</ele>
        <time>2020-02-24T08:49:53Z</time>
      </trkpt>
      <trkpt lat="43.97257" lon="5.25004">
        <ele>557.22</ele>
        <time>2020-02-24T08:50:02Z</time>
      </trkpt>
      <trkpt lat="43.97277" lon="5.25013">
        <ele>557.7</ele>
        <time>2020-02-24T08:50:15Z</time>
      </trkpt>
      <trkpt lat="43.97287" lon="5.25024">
        <ele>558.18</ele>
        <time>2020-02-24T08:50:25Z</time>
      </trkpt>
      <trkpt lat="43.97299" lon="5.25033">
        <ele>557.22</ele>
        <time>2020-02-24T08:50:35Z</time>
      </trkpt>
      <trkpt lat="43.97302" lon="5.25035">
        <ele>556.74</ele>
        <time>2020-02-24T08:50:38Z</time>
      </trkpt>
      <trkpt lat="43.97306" lon="5.2504">
        <ele>556.26</ele>
        <time>2020-02-24T08:50:43Z</time>
      </trkpt>
      <trkpt lat="43.97311" lon="5.25044">
        <ele>556.26</ele>
        <time>2020-02-24T08:50:47Z</time>
      </trkpt>
      <trkpt lat="43.97319" lon="5.25054">
        <ele>555.78</ele>
        <time>2020-02-24T08:51:00Z</time>
      </trkpt>
      <trkpt lat="43.97326" lon="5.25068">
        <ele>555.78</ele>
        <time>2020-02-24T08:51:10Z</time>
      </trkpt>
      <trkpt lat="43.97336" lon="5.25075">
        <ele>555.3</ele>
        <time>2020-02-24T08:51:21Z</time>
      </trkpt>
      <trkpt lat="43.97344" lon="5.25074">
        <ele>554.34</ele>
        <time>2020-02-24T08:51:33Z</time>
      </trkpt>
      <trkpt lat="43.97341" lon="5.25074">
        <ele>553.86</ele>
        <time>2020-02-24T08:51:35Z</time>
      </trkpt>
      <trkpt lat="43.97336" lon="5.25072">
        <ele>554.34</ele>
        <time>2020-02-24T08:51:39Z</time>
      </trkpt>
      <trkpt lat="43.97332" lon="5.25071">
        <ele>554.82</ele>
        <time>2020-02-24T08:51:42Z</time>
      </trkpt>
      <trkpt lat="43.97326" lon="5.25071">
        <ele>554.82</ele>
        <time>2020-02-24T08:51:47Z</time>
      </trkpt>
      <trkpt lat="43.97317" lon="5.2507">
        <ele>555.78</ele>
        <time>2020-02-24T08:51:53Z</time>
      </trkpt>
      <trkpt lat="43.97293" lon="5.25072">
        <ele>555.78</ele>
        <time>2020-02-24T08:52:09Z</time>
      </trkpt>
      <trkpt lat="43.97286" lon="5.25073">
        <ele>555.78</ele>
        <time>2020-02-24T08:52:14Z</time>
      </trkpt>
      <trkpt lat="43.97283" lon="5.25078">
        <ele>555.78</ele>
        <time>2020-02-24T08:52:19Z</time>
      </trkpt>
      <trkpt lat="43.97284" lon="5.25085">
        <ele>555.78</ele>
        <time>2020-02-24T08:52:23Z</time>
      </trkpt>
      <trkpt lat="43.97286" lon="5.2512">
        <ele>556.74</ele>
        <time>2020-02-24T08:52:42Z</time>
      </trkpt>
      <trkpt lat="43.97281" lon="5.25142">
        <ele>558.66</ele>
        <time>2020-02-24T08:52:57Z</time>
      </trkpt>
      <trkpt lat="43.97278" lon="5.25158">
        <ele>558.66</ele>
        <time>2020-02-24T08:53:08Z</time>
      </trkpt>
      <trkpt lat="43.97273" lon="5.25179">
        <ele>560.11</ele>
        <time>2020-02-24T08:53:20Z</time>
      </trkpt>
      <trkpt lat="43.97271" lon="5.25193">
        <ele>560.59</ele>
        <time>2020-02-24T08:53:29Z</time>
      </trkpt>
      <trkpt lat="43.9727" lon="5.25213">
        <ele>561.55</ele>
        <time>2020-02-24T08:53:39Z</time>
      </trkpt>
      <trkpt lat="43.97277" lon="5.25218">
        <ele>562.03</ele>
        <time>2020-02-24T08:53:46Z</time>
      </trkpt>
      <trkpt lat="43.97283" lon="5.25217">
        <ele>562.99</ele>
        <time>2020-02-24T08:53:51Z</time>
      </trkpt>
      <trkpt lat="43.97302" lon="5.25212">
        <ele>564.43</ele>
        <time>2020-02-24T08:54:08Z</time>
      </trkpt>
      <trkpt lat="43.97316" lon="5.25214">
        <ele>565.39</ele>
        <time>2020-02-24T08:54:23Z</time>
      </trkpt>
      <trkpt lat="43.97333" lon="5.25222">
        <ele>566.83</ele>
        <time>2020-02-24T08:54:40Z</time>
      </trkpt>
      <trkpt lat="43.97349" lon="5.2523">
        <ele>569.24</ele>
        <time>2020-02-24T08:54:55Z</time>
      </trkpt>
      <trkpt lat="43.97356" lon="5.25235">
        <ele>570.2</ele>
        <time>2020-02-24T08:55:03Z</time>
      </trkpt>
      <trkpt lat="43.97377" lon="5.25249">
        <ele>572.6</ele>
        <time>2020-02-24T08:55:22Z</time>
      </trkpt>
      <trkpt lat="43.9739" lon="5.2526">
        <ele>574.04</ele>
        <time>2020-02-24T08:55:37Z</time>
      </trkpt>
      <trkpt lat="43.974" lon="5.25267">
        <ele>575.01</ele>
        <time>2020-02-24T08:55:48Z</time>
      </trkpt>
      <trkpt lat="43.97425" lon="5.25282">
        <ele>577.89</ele>
        <time>2020-02-24T08:56:11Z</time>
      </trkpt>
      <trkpt lat="43.97444" lon="5.25293">
        <ele>579.81</ele>
        <time>2020-02-24T08:56:32Z</time>
      </trkpt>
      <trkpt lat="43.97455" lon="5.25302">
        <ele>581.25</ele>
        <time>2020-02-24T08:56:43Z</time>
      </trkpt>
      <trkpt lat="43.97474" lon="5.25317">
        <ele>583.18</ele>
        <time>2020-02-24T08:57:02Z</time>
      </trkpt>
      <trkpt lat="43.97494" lon="5.25318">
        <ele>584.62</ele>
        <time>2020-02-24T08:57:17Z</time>
      </trkpt>
      <trkpt lat="43.97515" lon="5.2532">
        <ele>586.06</ele>
        <time>2020-02-24T08:57:33Z</time>
      </trkpt>
      <trkpt lat="43.97531" lon="5.25322">
        <ele>587.5</ele>
        <time>2020-02-24T08:57:47Z</time>
      </trkpt>
      <trkpt lat="43.97551" lon="5.25326">
        <ele>587.98</ele>
        <time>2020-02-24T08:58:04Z</time>
      </trkpt>
      <trkpt lat="43.97576" lon="5.25329">
        <ele>587.98</ele>
        <time>2020-02-24T08:58:22Z</time>
      </trkpt>
      <trkpt lat="43.97582" lon="5.25328">
        <ele>587.02</ele>
        <time>2020-02-24T08:58:27Z</time>
      </trkpt>
      <trkpt lat="43.97597" lon="5.25331">
        <ele>587.5</ele>
        <time>2020-02-24T08:58:40Z</time>
      </trkpt>
      <trkpt lat="43.97613" lon="5.2533">
        <ele>587.5</ele>
        <time>2020-02-24T08:58:54Z</time>
      </trkpt>
      <trkpt lat="43.97636" lon="5.25336">
        <ele>584.14</ele>
        <time>2020-02-24T08:59:11Z</time>
      </trkpt>
      <trkpt lat="43.97652" lon="5.25344">
        <ele>583.18</ele>
        <time>2020-02-24T08:59:24Z</time>
      </trkpt>
      <trkpt lat="43.97676" lon="5.25359">
        <ele>583.18</ele>
        <time>2020-02-24T08:59:43Z</time>
      </trkpt>
      <trkpt lat="43.97696" lon="5.25365">
        <ele>583.18</ele>
        <time>2020-02-24T08:59:59Z</time>
      </trkpt>
      <trkpt lat="43.97714" lon="5.25369">
        <ele>584.14</ele>
        <time>2020-02-24T09:00:14Z</time>
      </trkpt>
      <trkpt lat="43.97734" lon="5.25371">
        <ele>586.06</ele>
        <time>2020-02-24T09:00:29Z</time>
      </trkpt>
      <trkpt lat="43.97751" lon="5.25369">
        <ele>587.5</ele>
        <time>2020-02-24T09:00:43Z</time>
      </trkpt>
      <trkpt lat="43.97769" lon="5.25367">
        <ele>587.98</ele>
        <time>2020-02-24T09:00:57Z</time>
      </trkpt>
      <trkpt lat="43.9779" lon="5.25374">
        <ele>587.02</ele>
        <time>2020-02-24T09:01:13Z</time>
      </trkpt>
      <trkpt lat="43.97808" lon="5.25384">
        <ele>586.06</ele>
        <time>2020-02-24T09:01:28Z</time>
      </trkpt>
      <trkpt lat="43.97825" lon="5.25399">
        <ele>587.02</ele>
        <time>2020-02-24T09:01:44Z</time>
      </trkpt>
      <trkpt lat="43.9783" lon="5.25403">
        <ele>587.5</ele>
        <time>2020-02-24T09:01:48Z</time>
      </trkpt>
      <trkpt lat="43.97847" lon="5.25416">
        <ele>587.98</ele>
        <time>2020-02-24T09:02:04Z</time>
      </trkpt>
      <trkpt lat="43.97865" lon="5.25424">
        <ele>588.95</ele>
        <time>2020-02-24T09:02:18Z</time>
      </trkpt>
      <trkpt lat="43.97881" lon="5.25433">
        <ele>588.95</ele>
        <time>2020-02-24T09:02:33Z</time>
      </trkpt>
      <trkpt lat="43.97901" lon="5.25448">
        <ele>589.43</ele>
        <time>2020-02-24T09:02:52Z</time>
      </trkpt>
      <trkpt lat="43.97914" lon="5.25459">
        <ele>589.43</ele>
        <time>2020-02-24T09:03:06Z</time>
      </trkpt>
      <trkpt lat="43.97933" lon="5.25472">
        <ele>591.35</ele>
        <time>2020-02-24T09:03:22Z</time>
      </trkpt>
      <trkpt lat="43.97948" lon="5.25486">
        <ele>591.83</ele>
        <time>2020-02-24T09:03:39Z</time>
      </trkpt>
      <trkpt lat="43.97965" lon="5.25504">
        <ele>592.31</ele>
        <time>2020-02-24T09:03:57Z</time>
      </trkpt>
      <trkpt lat="43.97983" lon="5.2552">
        <ele>594.23</ele>
        <time>2020-02-24T09:04:15Z</time>
      </trkpt>
      <trkpt lat="43.97998" lon="5.25536">
        <ele>595.19</ele>
        <time>2020-02-24T09:04:33Z</time>
      </trkpt>
      <trkpt lat="43.98013" lon="5.2555">
        <ele>596.64</ele>
        <time>2020-02-24T09:04:48Z</time>
      </trkpt>
      <trkpt lat="43.98032" lon="5.25563">
        <ele>598.08</ele>
        <time>2020-02-24T09:05:05Z</time>
      </trkpt>
      <trkpt lat="43.9805" lon="5.25577">
        <ele>598.56</ele>
        <time>2020-02-24T09:05:22Z</time>
      </trkpt>
      <trkpt lat="43.98056" lon="5.25583">
        <ele>598.56</ele>
        <time>2020-02-24T09:05:27Z</time>
      </trkpt>
      <trkpt lat="43.9806" lon="5.25592">
        <ele>599.52</ele>
        <time>2020-02-24T09:05:43Z</time>
      </trkpt>
      <trkpt lat="43.98057" lon="5.25587">
        <ele>599.04</ele>
        <time>2020-02-24T09:05:48Z</time>
      </trkpt>
      <trkpt lat="43.98046" lon="5.25576">
        <ele>599.04</ele>
        <time>2020-02-24T09:06:00Z</time>
      </trkpt>
      <trkpt lat="43.98027" lon="5.25562">
        <ele>598.56</ele>
        <time>2020-02-24T09:06:17Z</time>
      </trkpt>
      <trkpt lat="43.98011" lon="5.2555">
        <ele>596.64</ele>
        <time>2020-02-24T09:06:34Z</time>
      </trkpt>
      <trkpt lat="43.98007" lon="5.25557">
        <ele>597.6</ele>
        <time>2020-02-24T09:06:50Z</time>
      </trkpt>
      <trkpt lat="43.98002" lon="5.25566">
        <ele>599.04</ele>
        <time>2020-02-24T09:07:09Z</time>
      </trkpt>
      <trkpt lat="43.98002" lon="5.25577">
        <ele>599.04</ele>
        <time>2020-02-24T09:07:21Z</time>
      </trkpt>
      <trkpt lat="43.98" lon="5.2559">
        <ele>599.04</ele>
        <time>2020-02-24T09:07:38Z</time>
      </trkpt>
      <trkpt lat="43.98001" lon="5.25601">
        <ele>613.94</ele>
        <time>2020-02-24T09:07:52Z</time>
      </trkpt>
      <trkpt lat="43.98" lon="5.25601">
        <ele>613.94</ele>
        <time>2020-02-24T09:07:53Z</time>
      </trkpt>
      <trkpt lat="43.97994" lon="5.25605">
        <ele>615.86</ele>
        <time>2020-02-24T09:08:09Z</time>
      </trkpt>
      <trkpt lat="43.97993" lon="5.25607">
        <ele>619.23</ele>
        <time>2020-02-24T09:08:20Z</time>
      </trkpt>
      <trkpt lat="43.97993" lon="5.2561">
        <ele>619.23</ele>
        <time>2020-02-24T09:08:43Z</time>
      </trkpt>
      <trkpt lat="43.97995" lon="5.25611">
        <ele>619.71</ele>
        <time>2020-02-24T09:09:15Z</time>
      </trkpt>
      <trkpt lat="43.98001" lon="5.25617">
        <ele>619.71</ele>
        <time>2020-02-24T09:09:42Z</time>
      </trkpt>
      <trkpt lat="43.98001" lon="5.25617">
        <ele>619.71</ele>
        <time>2020-02-24T09:09:43Z</time>
      </trkpt>
      <trkpt lat="43.98011" lon="5.25629">
        <ele>622.11</ele>
        <time>2020-02-24T09:10:06Z</time>
      </trkpt>
      <trkpt lat="43.98027" lon="5.25642">
        <ele>622.11</ele>
        <time>2020-02-24T09:10:54Z</time>
      </trkpt>
      <trkpt lat="43.98029" lon="5.25645">
        <ele>621.63</ele>
        <time>2020-02-24T09:10:57Z</time>
      </trkpt>
      <trkpt lat="43.9803" lon="5.25647">
        <ele>621.63</ele>
        <time>2020-02-24T09:11:01Z</time>
      </trkpt>
      <trkpt lat="43.98031" lon="5.25646">
        <ele>620.67</ele>
        <time>2020-02-24T09:11:36Z</time>
      </trkpt>
      <trkpt lat="43.98029" lon="5.25644">
        <ele>620.67</ele>
        <time>2020-02-24T09:12:07Z</time>
      </trkpt>
      <trkpt lat="43.98027" lon="5.2564">
        <ele>621.63</ele>
        <time>2020-02-24T09:12:42Z</time>
      </trkpt>
      <trkpt lat="43.98028" lon="5.25637">
        <ele>621.63</ele>
        <time>2020-02-24T09:13:14Z</time>
      </trkpt>
      <trkpt lat="43.9803" lon="5.2564">
        <ele>621.15</ele>
        <time>2020-02-24T09:13:25Z</time>
      </trkpt>
      <trkpt lat="43.9804" lon="5.25658">
        <ele>623.07</ele>
        <time>2020-02-24T09:13:43Z</time>
      </trkpt>
      <trkpt lat="43.98049" lon="5.25676">
        <ele>621.63</ele>
        <time>2020-02-24T09:14:29Z</time>
      </trkpt>
      <trkpt lat="43.98048" lon="5.2568">
        <ele>623.55</ele>
        <time>2020-02-24T09:14:39Z</time>
      </trkpt>
      <trkpt lat="43.98047" lon="5.25682">
        <ele>624.03</ele>
        <time>2020-02-24T09:14:42Z</time>
      </trkpt>
      <trkpt lat="43.98064" lon="5.25675">
        <ele>624.99</ele>
        <time>2020-02-24T09:15:17Z</time>
      </trkpt>
      <trkpt lat="43.98064" lon="5.25675">
        <ele>624.99</ele>
        <time>2020-02-24T09:15:18Z</time>
      </trkpt>
      <trkpt lat="43.98063" lon="5.25697">
        <ele>626.44</ele>
        <time>2020-02-24T09:15:44Z</time>
      </trkpt>
      <trkpt lat="43.98064" lon="5.25712">
        <ele>624.99</ele>
        <time>2020-02-24T09:16:42Z</time>
      </trkpt>
      <trkpt lat="43.98068" lon="5.25715">
        <ele>624.99</ele>
        <time>2020-02-24T09:17:02Z</time>
      </trkpt>
      <trkpt lat="43.98069" lon="5.25715">
        <ele>625.47</ele>
        <time>2020-02-24T09:17:05Z</time>
      </trkpt>
      <trkpt lat="43.98069" lon="5.25724">
        <ele>624.51</ele>
        <time>2020-02-24T09:17:28Z</time>
      </trkpt>
      <trkpt lat="43.9808" lon="5.25736">
        <ele>624.03</ele>
        <time>2020-02-24T09:17:42Z</time>
      </trkpt>
      <trkpt lat="43.98081" lon="5.25743">
        <ele>624.99</ele>
        <time>2020-02-24T09:18:10Z</time>
      </trkpt>
      <trkpt lat="43.98084" lon="5.25743">
        <ele>624.99</ele>
        <time>2020-02-24T09:18:30Z</time>
      </trkpt>
      <trkpt lat="43.98088" lon="5.25744">
        <ele>624.99</ele>
        <time>2020-02-24T09:18:55Z</time>
      </trkpt>
      <trkpt lat="43.98086" lon="5.25751">
        <ele>624.99</ele>
        <time>2020-02-24T09:19:05Z</time>
      </trkpt>
      <trkpt lat="43.98084" lon="5.25755">
        <ele>627.88</ele>
        <time>2020-02-24T09:19:10Z</time>
      </trkpt>
      <trkpt lat="43.98083" lon="5.25756">
        <ele>627.88</ele>
        <time>2020-02-24T09:19:11Z</time>
      </trkpt>
      <trkpt lat="43.98088" lon="5.25763">
        <ele>627.4</ele>
        <time>2020-02-24T09:19:25Z</time>
      </trkpt>
      <trkpt lat="43.98103" lon="5.25772">
        <ele>624.99</ele>
        <time>2020-02-24T09:19:42Z</time>
      </trkpt>
      <trkpt lat="43.98111" lon="5.25778">
        <ele>624.03</ele>
        <time>2020-02-24T09:20:10Z</time>
      </trkpt>
      <trkpt lat="43.98117" lon="5.25787">
        <ele>624.03</ele>
        <time>2020-02-24T09:20:25Z</time>
      </trkpt>
      <trkpt lat="43.98128" lon="5.25798">
        <ele>626.92</ele>
        <time>2020-02-24T09:20:39Z</time>
      </trkpt>
      <trkpt lat="43.98129" lon="5.25806">
        <ele>629.8</ele>
        <time>2020-02-24T09:20:49Z</time>
      </trkpt>
      <trkpt lat="43.98132" lon="5.25815">
        <ele>633.17</ele>
        <time>2020-02-24T09:21:02Z</time>
      </trkpt>
      <trkpt lat="43.9813" lon="5.2582">
        <ele>636.05</ele>
        <time>2020-02-24T09:21:18Z</time>
      </trkpt>
      <trkpt lat="43.98127" lon="5.25834">
        <ele>639.41</ele>
        <time>2020-02-24T09:21:35Z</time>
      </trkpt>
      <trkpt lat="43.98122" lon="5.25848">
        <ele>642.78</ele>
        <time>2020-02-24T09:21:50Z</time>
      </trkpt>
      <trkpt lat="43.98117" lon="5.2586">
        <ele>644.7</ele>
        <time>2020-02-24T09:22:05Z</time>
      </trkpt>
      <trkpt lat="43.98114" lon="5.25869">
        <ele>646.62</ele>
        <time>2020-02-24T09:22:22Z</time>
      </trkpt>
      <trkpt lat="43.98113" lon="5.25871">
        <ele>646.62</ele>
        <time>2020-02-24T09:22:56Z</time>
      </trkpt>
      <trkpt lat="43.98114" lon="5.2587">
        <ele>646.62</ele>
        <time>2020-02-24T09:23:22Z</time>
      </trkpt>
      <trkpt lat="43.98123" lon="5.25886">
        <ele>646.62</ele>
        <time>2020-02-24T09:23:45Z</time>
      </trkpt>
      <trkpt lat="43.98125" lon="5.25891">
        <ele>649.03</ele>
        <time>2020-02-24T09:23:49Z</time>
      </trkpt>
      <trkpt lat="43.9813" lon="5.259">
        <ele>650.47</ele>
        <time>2020-02-24T09:24:01Z</time>
      </trkpt>
      <trkpt lat="43.98133" lon="5.25915">
        <ele>652.39</ele>
        <time>2020-02-24T09:24:14Z</time>
      </trkpt>
      <trkpt lat="43.98136" lon="5.25928">
        <ele>655.28</ele>
        <time>2020-02-24T09:24:26Z</time>
      </trkpt>
      <trkpt lat="43.98134" lon="5.25941">
        <ele>657.2</ele>
        <time>2020-02-24T09:24:38Z</time>
      </trkpt>
      <trkpt lat="43.98136" lon="5.25956">
        <ele>659.6</ele>
        <time>2020-02-24T09:24:53Z</time>
      </trkpt>
      <trkpt lat="43.98146" lon="5.25975">
        <ele>662.49</ele>
        <time>2020-02-24T09:25:14Z</time>
      </trkpt>
      <trkpt lat="43.98158" lon="5.25993">
        <ele>665.85</ele>
        <time>2020-02-24T09:25:37Z</time>
      </trkpt>
      <trkpt lat="43.98159" lon="5.26014">
        <ele>668.25</ele>
        <time>2020-02-24T09:25:53Z</time>
      </trkpt>
      <trkpt lat="43.98166" lon="5.26038">
        <ele>671.14</ele>
        <time>2020-02-24T09:26:14Z</time>
      </trkpt>
      <trkpt lat="43.98172" lon="5.26052">
        <ele>673.06</ele>
        <time>2020-02-24T09:26:28Z</time>
      </trkpt>
      <trkpt lat="43.9818" lon="5.26054">
        <ele>672.58</ele>
        <time>2020-02-24T09:26:41Z</time>
      </trkpt>
      <trkpt lat="43.98199" lon="5.26059">
        <ele>672.1</ele>
        <time>2020-02-24T09:26:59Z</time>
      </trkpt>
      <trkpt lat="43.9822" lon="5.26075">
        <ele>670.18</ele>
        <time>2020-02-24T09:27:19Z</time>
      </trkpt>
      <trkpt lat="43.98242" lon="5.26092">
        <ele>669.22</ele>
        <time>2020-02-24T09:27:40Z</time>
      </trkpt>
      <trkpt lat="43.98256" lon="5.26113">
        <ele>668.73</ele>
        <time>2020-02-24T09:27:59Z</time>
      </trkpt>
      <trkpt lat="43.98264" lon="5.26124">
        <ele>668.73</ele>
        <time>2020-02-24T09:28:14Z</time>
      </trkpt>
      <trkpt lat="43.98275" lon="5.2613">
        <ele>667.77</ele>
        <time>2020-02-24T09:28:22Z</time>
      </trkpt>
      <trkpt lat="43.98284" lon="5.26136">
        <ele>667.29</ele>
        <time>2020-02-24T09:28:31Z</time>
      </trkpt>
      <trkpt lat="43.98292" lon="5.26146">
        <ele>667.77</ele>
        <time>2020-02-24T09:28:42Z</time>
      </trkpt>
      <trkpt lat="43.98303" lon="5.26158">
        <ele>667.77</ele>
        <time>2020-02-24T09:28:52Z</time>
      </trkpt>
      <trkpt lat="43.98312" lon="5.26155">
        <ele>667.29</ele>
        <time>2020-02-24T09:29:10Z</time>
      </trkpt>
      <trkpt lat="43.98312" lon="5.26154">
        <ele>666.33</ele>
        <time>2020-02-24T09:29:36Z</time>
      </trkpt>
      <trkpt lat="43.98312" lon="5.26154">
        <ele>666.33</ele>
        <time>2020-02-24T09:30:11Z</time>
      </trkpt>
      <trkpt lat="43.98313" lon="5.26152">
        <ele>666.33</ele>
        <time>2020-02-24T09:30:45Z</time>
      </trkpt>
      <trkpt lat="43.98313" lon="5.26152">
        <ele>666.33</ele>
        <time>2020-02-24T09:31:21Z</time>
      </trkpt>
      <trkpt lat="43.98313" lon="5.26153">
        <ele>666.33</ele>
        <time>2020-02-24T09:31:57Z</time>
      </trkpt>
      <trkpt lat="43.98314" lon="5.26152">
        <ele>666.33</ele>
        <time>2020-02-24T09:32:33Z</time>
      </trkpt>
      <trkpt lat="43.98313" lon="5.2615">
        <ele>666.33</ele>
        <time>2020-02-24T09:33:07Z</time>
      </trkpt>
      <trkpt lat="43.98313" lon="5.26149">
        <ele>666.33</ele>
        <time>2020-02-24T09:33:42Z</time>
      </trkpt>
      <trkpt lat="43.98315" lon="5.26149">
        <ele>666.33</ele>
        <time>2020-02-24T09:34:21Z</time>
      </trkpt>
      <trkpt lat="43.98313" lon="5.26151">
        <ele>666.33</ele>
        <time>2020-02-24T09:35:24Z</time>
      </trkpt>
      <trkpt lat="43.98312" lon="5.26152">
        <ele>666.33</ele>
        <time>2020-02-24T09:35:45Z</time>
      </trkpt>
      <trkpt lat="43.98313" lon="5.26154">
        <ele>666.33</ele>
        <time>2020-02-24T09:36:48Z</time>
      </trkpt>
      <trkpt lat="43.9831" lon="5.26157">
        <ele>666.33</ele>
        <time>2020-02-24T09:37:38Z</time>
      </trkpt>
      <trkpt lat="43.9831" lon="5.26159">
        <ele>666.33</ele>
        <time>2020-02-24T09:38:04Z</time>
      </trkpt>
      <trkpt lat="43.98313" lon="5.26155">
        <ele>666.33</ele>
        <time>2020-02-24T09:38:36Z</time>
      </trkpt>
      <trkpt lat="43.98313" lon="5.26157">
        <ele>666.33</ele>
        <time>2020-02-24T09:39:04Z</time>
      </trkpt>
      <trkpt lat="43.98317" lon="5.26159">
        <ele>666.33</ele>
        <time>2020-02-24T09:39:35Z</time>
      </trkpt>
      <trkpt lat="43.98315" lon="5.26162">
        <ele>666.33</ele>
        <time>2020-02-24T09:40:12Z</time>
      </trkpt>
      <trkpt lat="43.98312" lon="5.26168">
        <ele>666.33</ele>
        <time>2020-02-24T09:40:20Z</time>
      </trkpt>
      <trkpt lat="43.98313" lon="5.26173">
        <ele>667.29</ele>
        <time>2020-02-24T09:40:25Z</time>
      </trkpt>
      <trkpt lat="43.98314" lon="5.26178">
        <ele>668.73</ele>
        <time>2020-02-24T09:40:28Z</time>
      </trkpt>
      <trkpt lat="43.98316" lon="5.26183">
        <ele>669.22</ele>
        <time>2020-02-24T09:40:33Z</time>
      </trkpt>
      <trkpt lat="43.98319" lon="5.26188">
        <ele>669.7</ele>
        <time>2020-02-24T09:40:37Z</time>
      </trkpt>
      <trkpt lat="43.98328" lon="5.26208">
        <ele>671.62</ele>
        <time>2020-02-24T09:40:53Z</time>
      </trkpt>
      <trkpt lat="43.98334" lon="5.26218">
        <ele>672.58</ele>
        <time>2020-02-24T09:41:01Z</time>
      </trkpt>
      <trkpt lat="43.98337" lon="5.26227">
        <ele>673.06</ele>
        <time>2020-02-24T09:41:07Z</time>
      </trkpt>
      <trkpt lat="43.98339" lon="5.26237">
        <ele>674.02</ele>
        <time>2020-02-24T09:41:13Z</time>
      </trkpt>
      <trkpt lat="43.98347" lon="5.26252">
        <ele>674.98</ele>
        <time>2020-02-24T09:41:26Z</time>
      </trkpt>
      <trkpt lat="43.98352" lon="5.26276">
        <ele>677.39</ele>
        <time>2020-02-24T09:41:42Z</time>
      </trkpt>
      <trkpt lat="43.98354" lon="5.26279">
        <ele>678.35</ele>
        <time>2020-02-24T09:41:45Z</time>
      </trkpt>
      <trkpt lat="43.98365" lon="5.26297">
        <ele>679.79</ele>
        <time>2020-02-24T09:42:03Z</time>
      </trkpt>
      <trkpt lat="43.98373" lon="5.26314">
        <ele>681.71</ele>
        <time>2020-02-24T09:42:17Z</time>
      </trkpt>
      <trkpt lat="43.9838" lon="5.26332">
        <ele>684.6</ele>
        <time>2020-02-24T09:42:34Z</time>
      </trkpt>
      <trkpt lat="43.98384" lon="5.2635">
        <ele>687.96</ele>
        <time>2020-02-24T09:42:49Z</time>
      </trkpt>
      <trkpt lat="43.98385" lon="5.26363">
        <ele>689.88</ele>
        <time>2020-02-24T09:43:01Z</time>
      </trkpt>
      <trkpt lat="43.98387" lon="5.26384">
        <ele>692.29</ele>
        <time>2020-02-24T09:43:16Z</time>
      </trkpt>
      <trkpt lat="43.9839" lon="5.26411">
        <ele>694.69</ele>
        <time>2020-02-24T09:43:38Z</time>
      </trkpt>
      <trkpt lat="43.98393" lon="5.2641">
        <ele>695.17</ele>
        <time>2020-02-24T09:44:01Z</time>
      </trkpt>
      <trkpt lat="43.984" lon="5.26402">
        <ele>694.69</ele>
        <time>2020-02-24T09:44:19Z</time>
      </trkpt>
      <trkpt lat="43.98404" lon="5.26399">
        <ele>694.69</ele>
        <time>2020-02-24T09:44:23Z</time>
      </trkpt>
      <trkpt lat="43.9842" lon="5.26398">
        <ele>696.61</ele>
        <time>2020-02-24T09:44:39Z</time>
      </trkpt>
      <trkpt lat="43.98434" lon="5.26406">
        <ele>699.5</ele>
        <time>2020-02-24T09:44:57Z</time>
      </trkpt>
      <trkpt lat="43.98452" lon="5.264">
        <ele>701.9</ele>
        <time>2020-02-24T09:45:17Z</time>
      </trkpt>
      <trkpt lat="43.98462" lon="5.26383">
        <ele>704.78</ele>
        <time>2020-02-24T09:45:33Z</time>
      </trkpt>
      <trkpt lat="43.98469" lon="5.26367">
        <ele>706.23</ele>
        <time>2020-02-24T09:45:47Z</time>
      </trkpt>
      <trkpt lat="43.98477" lon="5.26348">
        <ele>709.59</ele>
        <time>2020-02-24T09:46:04Z</time>
      </trkpt>
      <trkpt lat="43.98479" lon="5.26323">
        <ele>712.95</ele>
        <time>2020-02-24T09:46:23Z</time>
      </trkpt>
      <trkpt lat="43.98477" lon="5.263">
        <ele>714.88</ele>
        <time>2020-02-24T09:46:41Z</time>
      </trkpt>
      <trkpt lat="43.98477" lon="5.26291">
        <ele>715.84</ele>
        <time>2020-02-24T09:47:02Z</time>
      </trkpt>
      <trkpt lat="43.98476" lon="5.26288">
        <ele>715.84</ele>
        <time>2020-02-24T09:47:31Z</time>
      </trkpt>
      <trkpt lat="43.98476" lon="5.26285">
        <ele>716.32</ele>
        <time>2020-02-24T09:47:37Z</time>
      </trkpt>
      <trkpt lat="43.98476" lon="5.26264">
        <ele>717.76</ele>
        <time>2020-02-24T09:47:51Z</time>
      </trkpt>
      <trkpt lat="43.98477" lon="5.2625">
        <ele>718.24</ele>
        <time>2020-02-24T09:47:59Z</time>
      </trkpt>
      <trkpt lat="43.98478" lon="5.26218">
        <ele>719.68</ele>
        <time>2020-02-24T09:48:19Z</time>
      </trkpt>
      <trkpt lat="43.98478" lon="5.2618">
        <ele>720.65</ele>
        <time>2020-02-24T09:48:42Z</time>
      </trkpt>
      <trkpt lat="43.98475" lon="5.26158">
        <ele>721.13</ele>
        <time>2020-02-24T09:48:56Z</time>
      </trkpt>
      <trkpt lat="43.98469" lon="5.26127">
        <ele>721.13</ele>
        <time>2020-02-24T09:49:14Z</time>
      </trkpt>
      <trkpt lat="43.98471" lon="5.26101">
        <ele>722.09</ele>
        <time>2020-02-24T09:49:30Z</time>
      </trkpt>
      <trkpt lat="43.98471" lon="5.26099">
        <ele>722.09</ele>
        <time>2020-02-24T09:49:31Z</time>
      </trkpt>
      <trkpt lat="43.98471" lon="5.2607">
        <ele>724.01</ele>
        <time>2020-02-24T09:49:50Z</time>
      </trkpt>
      <trkpt lat="43.9847" lon="5.26048">
        <ele>724.49</ele>
        <time>2020-02-24T09:50:03Z</time>
      </trkpt>
      <trkpt lat="43.98477" lon="5.26022">
        <ele>724.97</ele>
        <time>2020-02-24T09:50:20Z</time>
      </trkpt>
      <trkpt lat="43.98485" lon="5.26001">
        <ele>725.45</ele>
        <time>2020-02-24T09:50:35Z</time>
      </trkpt>
      <trkpt lat="43.98486" lon="5.2599">
        <ele>725.45</ele>
        <time>2020-02-24T09:50:43Z</time>
      </trkpt>
      <trkpt lat="43.98498" lon="5.25966">
        <ele>726.89</ele>
        <time>2020-02-24T09:51:01Z</time>
      </trkpt>
      <trkpt lat="43.98503" lon="5.25949">
        <ele>727.37</ele>
        <time>2020-02-24T09:51:14Z</time>
      </trkpt>
      <trkpt lat="43.98513" lon="5.2593">
        <ele>729.3</ele>
        <time>2020-02-24T09:51:31Z</time>
      </trkpt>
      <trkpt lat="43.98525" lon="5.25904">
        <ele>731.7</ele>
        <time>2020-02-24T09:51:51Z</time>
      </trkpt>
      <trkpt lat="43.98527" lon="5.25895">
        <ele>732.18</ele>
        <time>2020-02-24T09:51:58Z</time>
      </trkpt>
      <trkpt lat="43.98523" lon="5.25878">
        <ele>732.66</ele>
        <time>2020-02-24T09:52:09Z</time>
      </trkpt>
      <trkpt lat="43.98524" lon="5.25856">
        <ele>733.62</ele>
        <time>2020-02-24T09:52:23Z</time>
      </trkpt>
      <trkpt lat="43.98527" lon="5.25829">
        <ele>734.58</ele>
        <time>2020-02-24T09:52:44Z</time>
      </trkpt>
      <trkpt lat="43.98528" lon="5.25813">
        <ele>734.58</ele>
        <time>2020-02-24T09:52:55Z</time>
      </trkpt>
      <trkpt lat="43.9854" lon="5.25802">
        <ele>735.07</ele>
        <time>2020-02-24T09:53:08Z</time>
      </trkpt>
      <trkpt lat="43.98553" lon="5.25812">
        <ele>735.55</ele>
        <time>2020-02-24T09:53:26Z</time>
      </trkpt>
      <trkpt lat="43.98561" lon="5.25829">
        <ele>736.03</ele>
        <time>2020-02-24T09:53:39Z</time>
      </trkpt>
      <trkpt lat="43.98573" lon="5.25849">
        <ele>737.95</ele>
        <time>2020-02-24T09:53:56Z</time>
      </trkpt>
      <trkpt lat="43.98575" lon="5.25854">
        <ele>738.43</ele>
        <time>2020-02-24T09:53:59Z</time>
      </trkpt>
      <trkpt lat="43.98579" lon="5.25862">
        <ele>738.91</ele>
        <time>2020-02-24T09:54:05Z</time>
      </trkpt>
      <trkpt lat="43.98586" lon="5.2589">
        <ele>740.83</ele>
        <time>2020-02-24T09:54:23Z</time>
      </trkpt>
      <trkpt lat="43.98586" lon="5.25891">
        <ele>740.83</ele>
        <time>2020-02-24T09:54:24Z</time>
      </trkpt>
      <trkpt lat="43.98597" lon="5.25908">
        <ele>741.79</ele>
        <time>2020-02-24T09:54:40Z</time>
      </trkpt>
      <trkpt lat="43.98608" lon="5.25922">
        <ele>742.28</ele>
        <time>2020-02-24T09:54:55Z</time>
      </trkpt>
      <trkpt lat="43.98611" lon="5.25924">
        <ele>742.76</ele>
        <time>2020-02-24T09:54:58Z</time>
      </trkpt>
      <trkpt lat="43.98617" lon="5.25941">
        <ele>743.24</ele>
        <time>2020-02-24T09:55:11Z</time>
      </trkpt>
      <trkpt lat="43.98617" lon="5.25943">
        <ele>743.24</ele>
        <time>2020-02-24T09:55:12Z</time>
      </trkpt>
      <trkpt lat="43.98619" lon="5.25967">
        <ele>744.68</ele>
        <time>2020-02-24T09:55:27Z</time>
      </trkpt>
      <trkpt lat="43.9863" lon="5.25989">
        <ele>745.64</ele>
        <time>2020-02-24T09:55:43Z</time>
      </trkpt>
      <trkpt lat="43.98646" lon="5.26014">
        <ele>746.6</ele>
        <time>2020-02-24T09:56:03Z</time>
      </trkpt>
      <trkpt lat="43.98651" lon="5.26019">
        <ele>747.08</ele>
        <time>2020-02-24T09:56:07Z</time>
      </trkpt>
      <trkpt lat="43.98658" lon="5.26034">
        <ele>748.52</ele>
        <time>2020-02-24T09:56:19Z</time>
      </trkpt>
      <trkpt lat="43.98668" lon="5.26054">
        <ele>749.49</ele>
        <time>2020-02-24T09:56:35Z</time>
      </trkpt>
      <trkpt lat="43.98669" lon="5.26056">
        <ele>749.97</ele>
        <time>2020-02-24T09:56:37Z</time>
      </trkpt>
      <trkpt lat="43.9867" lon="5.26059">
        <ele>750.45</ele>
        <time>2020-02-24T09:56:39Z</time>
      </trkpt>
      <trkpt lat="43.98677" lon="5.26075">
        <ele>750.93</ele>
        <time>2020-02-24T09:56:51Z</time>
      </trkpt>
      <trkpt lat="43.98687" lon="5.26095">
        <ele>752.37</ele>
        <time>2020-02-24T09:57:07Z</time>
      </trkpt>
      <trkpt lat="43.98696" lon="5.26106">
        <ele>753.81</ele>
        <time>2020-02-24T09:57:19Z</time>
      </trkpt>
      <trkpt lat="43.98707" lon="5.26121">
        <ele>754.77</ele>
        <time>2020-02-24T09:57:31Z</time>
      </trkpt>
      <trkpt lat="43.98715" lon="5.26141">
        <ele>755.25</ele>
        <time>2020-02-24T09:57:47Z</time>
      </trkpt>
      <trkpt lat="43.98721" lon="5.26155">
        <ele>755.73</ele>
        <time>2020-02-24T09:57:58Z</time>
      </trkpt>
      <trkpt lat="43.98728" lon="5.26161">
        <ele>755.25</ele>
        <time>2020-02-24T09:58:04Z</time>
      </trkpt>
      <trkpt lat="43.98737" lon="5.26175">
        <ele>755.25</ele>
        <time>2020-02-24T09:58:16Z</time>
      </trkpt>
      <trkpt lat="43.98739" lon="5.26177">
        <ele>755.73</ele>
        <time>2020-02-24T09:58:18Z</time>
      </trkpt>
      <trkpt lat="43.98747" lon="5.26185">
        <ele>755.73</ele>
        <time>2020-02-24T09:58:26Z</time>
      </trkpt>
      <trkpt lat="43.98761" lon="5.26201">
        <ele>756.21</ele>
        <time>2020-02-24T09:58:42Z</time>
      </trkpt>
      <trkpt lat="43.9877" lon="5.26208">
        <ele>756.69</ele>
        <time>2020-02-24T09:58:53Z</time>
      </trkpt>
      <trkpt lat="43.98772" lon="5.26207">
        <ele>756.69</ele>
        <time>2020-02-24T09:58:55Z</time>
      </trkpt>
      <trkpt lat="43.98781" lon="5.26193">
        <ele>757.18</ele>
        <time>2020-02-24T09:59:06Z</time>
      </trkpt>
      <trkpt lat="43.98783" lon="5.26189">
        <ele>757.18</ele>
        <time>2020-02-24T09:59:10Z</time>
      </trkpt>
      <trkpt lat="43.98784" lon="5.26182">
        <ele>758.14</ele>
        <time>2020-02-24T09:59:23Z</time>
      </trkpt>
      <trkpt lat="43.98789" lon="5.26176">
        <ele>758.14</ele>
        <time>2020-02-24T09:59:32Z</time>
      </trkpt>
      <trkpt lat="43.9879" lon="5.26173">
        <ele>758.14</ele>
        <time>2020-02-24T09:59:34Z</time>
      </trkpt>
      <trkpt lat="43.98799" lon="5.26158">
        <ele>758.62</ele>
        <time>2020-02-24T09:59:48Z</time>
      </trkpt>
      <trkpt lat="43.98808" lon="5.2613">
        <ele>761.02</ele>
        <time>2020-02-24T10:00:05Z</time>
      </trkpt>
      <trkpt lat="43.98811" lon="5.26125">
        <ele>761.02</ele>
        <time>2020-02-24T10:00:09Z</time>
      </trkpt>
      <trkpt lat="43.98819" lon="5.26095">
        <ele>762.46</ele>
        <time>2020-02-24T10:00:27Z</time>
      </trkpt>
      <trkpt lat="43.98817" lon="5.26097">
        <ele>762.94</ele>
        <time>2020-02-24T10:00:39Z</time>
      </trkpt>
      <trkpt lat="43.98826" lon="5.26083">
        <ele>762.94</ele>
        <time>2020-02-24T10:00:56Z</time>
      </trkpt>
      <trkpt lat="43.98838" lon="5.26067">
        <ele>763.42</ele>
        <time>2020-02-24T10:01:11Z</time>
      </trkpt>
      <trkpt lat="43.98857" lon="5.26044">
        <ele>763.42</ele>
        <time>2020-02-24T10:01:32Z</time>
      </trkpt>
      <trkpt lat="43.9887" lon="5.26031">
        <ele>763.42</ele>
        <time>2020-02-24T10:01:46Z</time>
      </trkpt>
      <trkpt lat="43.98884" lon="5.2602">
        <ele>763.42</ele>
        <time>2020-02-24T10:01:58Z</time>
      </trkpt>
      <trkpt lat="43.98884" lon="5.25998">
        <ele>763.42</ele>
        <time>2020-02-24T10:02:13Z</time>
      </trkpt>
      <trkpt lat="43.98877" lon="5.25969">
        <ele>763.42</ele>
        <time>2020-02-24T10:02:31Z</time>
      </trkpt>
      <trkpt lat="43.98873" lon="5.25963">
        <ele>762.94</ele>
        <time>2020-02-24T10:02:36Z</time>
      </trkpt>
      <trkpt lat="43.98869" lon="5.25932">
        <ele>762.94</ele>
        <time>2020-02-24T10:02:54Z</time>
      </trkpt>
      <trkpt lat="43.98872" lon="5.25896">
        <ele>762.46</ele>
        <time>2020-02-24T10:03:13Z</time>
      </trkpt>
      <trkpt lat="43.98874" lon="5.25892">
        <ele>762.46</ele>
        <time>2020-02-24T10:03:16Z</time>
      </trkpt>
      <trkpt lat="43.9888" lon="5.25891">
        <ele>761.98</ele>
        <time>2020-02-24T10:03:21Z</time>
      </trkpt>
      <trkpt lat="43.98882" lon="5.25891">
        <ele>761.98</ele>
        <time>2020-02-24T10:03:23Z</time>
      </trkpt>
      <trkpt lat="43.98906" lon="5.25876">
        <ele>761.02</ele>
        <time>2020-02-24T10:03:43Z</time>
      </trkpt>
      <trkpt lat="43.98912" lon="5.25878">
        <ele>761.02</ele>
        <time>2020-02-24T10:03:48Z</time>
      </trkpt>
      <trkpt lat="43.98917" lon="5.25877">
        <ele>761.02</ele>
        <time>2020-02-24T10:03:52Z</time>
      </trkpt>
      <trkpt lat="43.98937" lon="5.25885">
        <ele>760.06</ele>
        <time>2020-02-24T10:04:08Z</time>
      </trkpt>
      <trkpt lat="43.98953" lon="5.2589">
        <ele>759.58</ele>
        <time>2020-02-24T10:04:22Z</time>
      </trkpt>
      <trkpt lat="43.98965" lon="5.25903">
        <ele>758.62</ele>
        <time>2020-02-24T10:04:37Z</time>
      </trkpt>
      <trkpt lat="43.9898" lon="5.25918">
        <ele>758.62</ele>
        <time>2020-02-24T10:04:52Z</time>
      </trkpt>
      <trkpt lat="43.98994" lon="5.25934">
        <ele>758.62</ele>
        <time>2020-02-24T10:05:07Z</time>
      </trkpt>
      <trkpt lat="43.9901" lon="5.25951">
        <ele>758.14</ele>
        <time>2020-02-24T10:05:22Z</time>
      </trkpt>
      <trkpt lat="43.99021" lon="5.25962">
        <ele>757.66</ele>
        <time>2020-02-24T10:05:32Z</time>
      </trkpt>
      <trkpt lat="43.99036" lon="5.25981">
        <ele>757.18</ele>
        <time>2020-02-24T10:05:50Z</time>
      </trkpt>
      <trkpt lat="43.99055" lon="5.25993">
        <ele>756.21</ele>
        <time>2020-02-24T10:06:06Z</time>
      </trkpt>
      <trkpt lat="43.99066" lon="5.25992">
        <ele>755.25</ele>
        <time>2020-02-24T10:06:23Z</time>
      </trkpt>
      <trkpt lat="43.99074" lon="5.2599">
        <ele>754.29</ele>
        <time>2020-02-24T10:06:37Z</time>
      </trkpt>
      <trkpt lat="43.99079" lon="5.25975">
        <ele>751.89</ele>
        <time>2020-02-24T10:06:56Z</time>
      </trkpt>
      <trkpt lat="43.99077" lon="5.2596">
        <ele>750.45</ele>
        <time>2020-02-24T10:07:14Z</time>
      </trkpt>
      <trkpt lat="43.99089" lon="5.25949">
        <ele>747.56</ele>
        <time>2020-02-24T10:07:34Z</time>
      </trkpt>
      <trkpt lat="43.99091" lon="5.25934">
        <ele>744.2</ele>
        <time>2020-02-24T10:07:54Z</time>
      </trkpt>
      <trkpt lat="43.99098" lon="5.25927">
        <ele>741.79</ele>
        <time>2020-02-24T10:08:13Z</time>
      </trkpt>
      <trkpt lat="43.9911" lon="5.25927">
        <ele>740.83</ele>
        <time>2020-02-24T10:08:31Z</time>
      </trkpt>
      <trkpt lat="43.99121" lon="5.25926">
        <ele>739.39</ele>
        <time>2020-02-24T10:08:42Z</time>
      </trkpt>
      <trkpt lat="43.99134" lon="5.25921">
        <ele>738.43</ele>
        <time>2020-02-24T10:08:54Z</time>
      </trkpt>
      <trkpt lat="43.99138" lon="5.25906">
        <ele>738.91</ele>
        <time>2020-02-24T10:09:10Z</time>
      </trkpt>
      <trkpt lat="43.99143" lon="5.25898">
        <ele>738.43</ele>
        <time>2020-02-24T10:09:27Z</time>
      </trkpt>
      <trkpt lat="43.99147" lon="5.25892">
        <ele>738.43</ele>
        <time>2020-02-24T10:09:32Z</time>
      </trkpt>
      <trkpt lat="43.99151" lon="5.25888">
        <ele>738.43</ele>
        <time>2020-02-24T10:09:37Z</time>
      </trkpt>
      <trkpt lat="43.99154" lon="5.25876">
        <ele>738.43</ele>
        <time>2020-02-24T10:09:52Z</time>
      </trkpt>
      <trkpt lat="43.99161" lon="5.25864">
        <ele>737.95</ele>
        <time>2020-02-24T10:10:07Z</time>
      </trkpt>
      <trkpt lat="43.99175" lon="5.25851">
        <ele>736.99</ele>
        <time>2020-02-24T10:10:22Z</time>
      </trkpt>
      <trkpt lat="43.9919" lon="5.25849">
        <ele>736.99</ele>
        <time>2020-02-24T10:10:36Z</time>
      </trkpt>
      <trkpt lat="43.99205" lon="5.25843">
        <ele>736.51</ele>
        <time>2020-02-24T10:10:50Z</time>
      </trkpt>
      <trkpt lat="43.99226" lon="5.25833">
        <ele>735.07</ele>
        <time>2020-02-24T10:11:07Z</time>
      </trkpt>
      <trkpt lat="43.99234" lon="5.2583">
        <ele>734.58</ele>
        <time>2020-02-24T10:11:15Z</time>
      </trkpt>
      <trkpt lat="43.99256" lon="5.25834">
        <ele>733.62</ele>
        <time>2020-02-24T10:11:32Z</time>
      </trkpt>
      <trkpt lat="43.99275" lon="5.25834">
        <ele>732.18</ele>
        <time>2020-02-24T10:11:46Z</time>
      </trkpt>
      <trkpt lat="43.99282" lon="5.25832">
        <ele>732.18</ele>
        <time>2020-02-24T10:11:54Z</time>
      </trkpt>
      <trkpt lat="43.99299" lon="5.25836">
        <ele>731.7</ele>
        <time>2020-02-24T10:12:08Z</time>
      </trkpt>
      <trkpt lat="43.9931" lon="5.25831">
        <ele>731.22</ele>
        <time>2020-02-24T10:12:20Z</time>
      </trkpt>
      <trkpt lat="43.99312" lon="5.25818">
        <ele>730.74</ele>
        <time>2020-02-24T10:12:36Z</time>
      </trkpt>
      <trkpt lat="43.99302" lon="5.25817">
        <ele>729.78</ele>
        <time>2020-02-24T10:12:52Z</time>
      </trkpt>
      <trkpt lat="43.9928" lon="5.25806">
        <ele>729.3</ele>
        <time>2020-02-24T10:13:13Z</time>
      </trkpt>
      <trkpt lat="43.9927" lon="5.25802">
        <ele>728.82</ele>
        <time>2020-02-24T10:13:23Z</time>
      </trkpt>
      <trkpt lat="43.99256" lon="5.25792">
        <ele>728.34</ele>
        <time>2020-02-24T10:13:35Z</time>
      </trkpt>
      <trkpt lat="43.99235" lon="5.25772">
        <ele>727.37</ele>
        <time>2020-02-24T10:13:56Z</time>
      </trkpt>
      <trkpt lat="43.99217" lon="5.25758">
        <ele>725.93</ele>
        <time>2020-02-24T10:14:12Z</time>
      </trkpt>
      <trkpt lat="43.99209" lon="5.2575">
        <ele>725.45</ele>
        <time>2020-02-24T10:14:20Z</time>
      </trkpt>
      <trkpt lat="43.99193" lon="5.25721">
        <ele>724.49</ele>
        <time>2020-02-24T10:14:37Z</time>
      </trkpt>
      <trkpt lat="43.99189" lon="5.25714">
        <ele>724.49</ele>
        <time>2020-02-24T10:14:42Z</time>
      </trkpt>
      <trkpt lat="43.99189" lon="5.2571">
        <ele>724.01</ele>
        <time>2020-02-24T10:14:44Z</time>
      </trkpt>
      <trkpt lat="43.99185" lon="5.25704">
        <ele>724.01</ele>
        <time>2020-02-24T10:14:48Z</time>
      </trkpt>
      <trkpt lat="43.9918" lon="5.25687">
        <ele>723.53</ele>
        <time>2020-02-24T10:14:58Z</time>
      </trkpt>
      <trkpt lat="43.99179" lon="5.25684">
        <ele>723.05</ele>
        <time>2020-02-24T10:15:00Z</time>
      </trkpt>
      <trkpt lat="43.99173" lon="5.2567">
        <ele>722.57</ele>
        <time>2020-02-24T10:15:11Z</time>
      </trkpt>
      <trkpt lat="43.99161" lon="5.25642">
        <ele>721.13</ele>
        <time>2020-02-24T10:15:30Z</time>
      </trkpt>
      <trkpt lat="43.99146" lon="5.25614">
        <ele>720.16</ele>
        <time>2020-02-24T10:15:50Z</time>
      </trkpt>
      <trkpt lat="43.99134" lon="5.25607">
        <ele>718.72</ele>
        <time>2020-02-24T10:16:02Z</time>
      </trkpt>
      <trkpt lat="43.99116" lon="5.25602">
        <ele>716.8</ele>
        <time>2020-02-24T10:16:15Z</time>
      </trkpt>
      <trkpt lat="43.99093" lon="5.25596">
        <ele>715.84</ele>
        <time>2020-02-24T10:16:34Z</time>
      </trkpt>
      <trkpt lat="43.99072" lon="5.25598">
        <ele>714.4</ele>
        <time>2020-02-24T10:16:53Z</time>
      </trkpt>
      <trkpt lat="43.9906" lon="5.25594">
        <ele>713.92</ele>
        <time>2020-02-24T10:17:03Z</time>
      </trkpt>
      <trkpt lat="43.99046" lon="5.25586">
        <ele>713.44</ele>
        <time>2020-02-24T10:17:15Z</time>
      </trkpt>
      <trkpt lat="43.99037" lon="5.25578">
        <ele>712.95</ele>
        <time>2020-02-24T10:17:24Z</time>
      </trkpt>
      <trkpt lat="43.99035" lon="5.25576">
        <ele>712.95</ele>
        <time>2020-02-24T10:17:26Z</time>
      </trkpt>
      <trkpt lat="43.99021" lon="5.25572">
        <ele>712.47</ele>
        <time>2020-02-24T10:17:36Z</time>
      </trkpt>
      <trkpt lat="43.99002" lon="5.25583">
        <ele>711.99</ele>
        <time>2020-02-24T10:17:49Z</time>
      </trkpt>
      <trkpt lat="43.98994" lon="5.25583">
        <ele>711.99</ele>
        <time>2020-02-24T10:17:56Z</time>
      </trkpt>
      <trkpt lat="43.98979" lon="5.25568">
        <ele>710.55</ele>
        <time>2020-02-24T10:18:13Z</time>
      </trkpt>
      <trkpt lat="43.98957" lon="5.25546">
        <ele>709.59</ele>
        <time>2020-02-24T10:18:35Z</time>
      </trkpt>
      <trkpt lat="43.98938" lon="5.25522">
        <ele>708.63</ele>
        <time>2020-02-24T10:18:53Z</time>
      </trkpt>
      <trkpt lat="43.98931" lon="5.25514">
        <ele>709.11</ele>
        <time>2020-02-24T10:19:11Z</time>
      </trkpt>
      <trkpt lat="43.98928" lon="5.2551">
        <ele>708.15</ele>
        <time>2020-02-24T10:19:33Z</time>
      </trkpt>
      <trkpt lat="43.98927" lon="5.25513">
        <ele>708.15</ele>
        <time>2020-02-24T10:20:03Z</time>
      </trkpt>
      <trkpt lat="43.98929" lon="5.25512">
        <ele>708.63</ele>
        <time>2020-02-24T10:20:34Z</time>
      </trkpt>
      <trkpt lat="43.98927" lon="5.2551">
        <ele>708.15</ele>
        <time>2020-02-24T10:21:03Z</time>
      </trkpt>
      <trkpt lat="43.98926" lon="5.25508">
        <ele>708.63</ele>
        <time>2020-02-24T10:21:31Z</time>
      </trkpt>
      <trkpt lat="43.9892" lon="5.25501">
        <ele>708.63</ele>
        <time>2020-02-24T10:21:36Z</time>
      </trkpt>
      <trkpt lat="43.98903" lon="5.25504">
        <ele>707.19</ele>
        <time>2020-02-24T10:21:54Z</time>
      </trkpt>
      <trkpt lat="43.98892" lon="5.25514">
        <ele>706.71</ele>
        <time>2020-02-24T10:22:03Z</time>
      </trkpt>
      <trkpt lat="43.98882" lon="5.25524">
        <ele>706.23</ele>
        <time>2020-02-24T10:22:11Z</time>
      </trkpt>
      <trkpt lat="43.98862" lon="5.25536">
        <ele>704.3</ele>
        <time>2020-02-24T10:22:29Z</time>
      </trkpt>
      <trkpt lat="43.98848" lon="5.25528">
        <ele>703.82</ele>
        <time>2020-02-24T10:22:43Z</time>
      </trkpt>
      <trkpt lat="43.98839" lon="5.25521">
        <ele>703.82</ele>
        <time>2020-02-24T10:22:50Z</time>
      </trkpt>
      <trkpt lat="43.98822" lon="5.25507">
        <ele>703.82</ele>
        <time>2020-02-24T10:23:03Z</time>
      </trkpt>
      <trkpt lat="43.98801" lon="5.25494">
        <ele>702.38</ele>
        <time>2020-02-24T10:23:20Z</time>
      </trkpt>
      <trkpt lat="43.98793" lon="5.25486">
        <ele>701.9</ele>
        <time>2020-02-24T10:23:28Z</time>
      </trkpt>
      <trkpt lat="43.98779" lon="5.2546">
        <ele>701.42</ele>
        <time>2020-02-24T10:23:44Z</time>
      </trkpt>
      <trkpt lat="43.98766" lon="5.25451">
        <ele>699.98</ele>
        <time>2020-02-24T10:23:58Z</time>
      </trkpt>
      <trkpt lat="43.98751" lon="5.25452">
        <ele>699.02</ele>
        <time>2020-02-24T10:24:10Z</time>
      </trkpt>
      <trkpt lat="43.98732" lon="5.2545">
        <ele>697.57</ele>
        <time>2020-02-24T10:24:25Z</time>
      </trkpt>
      <trkpt lat="43.98711" lon="5.25431">
        <ele>695.65</ele>
        <time>2020-02-24T10:24:46Z</time>
      </trkpt>
      <trkpt lat="43.98696" lon="5.25402">
        <ele>694.21</ele>
        <time>2020-02-24T10:25:04Z</time>
      </trkpt>
      <trkpt lat="43.98681" lon="5.25376">
        <ele>693.25</ele>
        <time>2020-02-24T10:25:20Z</time>
      </trkpt>
      <trkpt lat="43.98674" lon="5.25371">
        <ele>692.77</ele>
        <time>2020-02-24T10:25:26Z</time>
      </trkpt>
      <trkpt lat="43.98669" lon="5.25368">
        <ele>692.77</ele>
        <time>2020-02-24T10:25:30Z</time>
      </trkpt>
      <trkpt lat="43.98647" lon="5.25359">
        <ele>691.81</ele>
        <time>2020-02-24T10:25:45Z</time>
      </trkpt>
      <trkpt lat="43.98638" lon="5.25364">
        <ele>691.33</ele>
        <time>2020-02-24T10:25:53Z</time>
      </trkpt>
      <trkpt lat="43.98623" lon="5.25365">
        <ele>689.88</ele>
        <time>2020-02-24T10:26:05Z</time>
      </trkpt>
      <trkpt lat="43.98607" lon="5.25374">
        <ele>689.4</ele>
        <time>2020-02-24T10:26:19Z</time>
      </trkpt>
      <trkpt lat="43.98597" lon="5.25379">
        <ele>689.4</ele>
        <time>2020-02-24T10:26:27Z</time>
      </trkpt>
      <trkpt lat="43.98594" lon="5.25378">
        <ele>689.4</ele>
        <time>2020-02-24T10:26:30Z</time>
      </trkpt>
      <trkpt lat="43.98585" lon="5.25367">
        <ele>687.96</ele>
        <time>2020-02-24T10:26:40Z</time>
      </trkpt>
      <trkpt lat="43.98572" lon="5.25349">
        <ele>687</ele>
        <time>2020-02-24T10:26:55Z</time>
      </trkpt>
      <trkpt lat="43.98569" lon="5.25344">
        <ele>687</ele>
        <time>2020-02-24T10:26:59Z</time>
      </trkpt>
      <trkpt lat="43.98569" lon="5.25337">
        <ele>686.52</ele>
        <time>2020-02-24T10:27:03Z</time>
      </trkpt>
      <trkpt lat="43.98578" lon="5.25307">
        <ele>685.56</ele>
        <time>2020-02-24T10:27:20Z</time>
      </trkpt>
      <trkpt lat="43.98585" lon="5.25289">
        <ele>684.6</ele>
        <time>2020-02-24T10:27:33Z</time>
      </trkpt>
      <trkpt lat="43.98581" lon="5.25269">
        <ele>683.15</ele>
        <time>2020-02-24T10:27:47Z</time>
      </trkpt>
      <trkpt lat="43.98569" lon="5.25246">
        <ele>682.19</ele>
        <time>2020-02-24T10:28:02Z</time>
      </trkpt>
      <trkpt lat="43.98544" lon="5.25239">
        <ele>682.19</ele>
        <time>2020-02-24T10:28:20Z</time>
      </trkpt>
      <trkpt lat="43.98539" lon="5.25235">
        <ele>682.19</ele>
        <time>2020-02-24T10:28:24Z</time>
      </trkpt>
      <trkpt lat="43.9852" lon="5.25221">
        <ele>682.67</ele>
        <time>2020-02-24T10:28:41Z</time>
      </trkpt>
      <trkpt lat="43.98514" lon="5.25212">
        <ele>683.63</ele>
        <time>2020-02-24T10:28:54Z</time>
      </trkpt>
      <trkpt lat="43.98512" lon="5.2521">
        <ele>683.63</ele>
        <time>2020-02-24T10:29:09Z</time>
      </trkpt>
      <trkpt lat="43.98511" lon="5.25225">
        <ele>682.19</ele>
        <time>2020-02-24T10:29:26Z</time>
      </trkpt>
      <trkpt lat="43.98508" lon="5.25232">
        <ele>681.71</ele>
        <time>2020-02-24T10:29:30Z</time>
      </trkpt>
      <trkpt lat="43.98501" lon="5.2524">
        <ele>680.75</ele>
        <time>2020-02-24T10:29:38Z</time>
      </trkpt>
      <trkpt lat="43.98486" lon="5.25261">
        <ele>679.79</ele>
        <time>2020-02-24T10:29:52Z</time>
      </trkpt>
      <trkpt lat="43.98481" lon="5.25267">
        <ele>678.83</ele>
        <time>2020-02-24T10:29:57Z</time>
      </trkpt>
      <trkpt lat="43.98463" lon="5.25279">
        <ele>676.91</ele>
        <time>2020-02-24T10:30:14Z</time>
      </trkpt>
      <trkpt lat="43.98457" lon="5.25281">
        <ele>676.42</ele>
        <time>2020-02-24T10:30:18Z</time>
      </trkpt>
      <trkpt lat="43.98437" lon="5.25282">
        <ele>675.94</ele>
        <time>2020-02-24T10:30:34Z</time>
      </trkpt>
      <trkpt lat="43.98422" lon="5.25277">
        <ele>674.5</ele>
        <time>2020-02-24T10:30:46Z</time>
      </trkpt>
      <trkpt lat="43.9841" lon="5.25272">
        <ele>674.02</ele>
        <time>2020-02-24T10:30:57Z</time>
      </trkpt>
      <trkpt lat="43.984" lon="5.25267">
        <ele>673.54</ele>
        <time>2020-02-24T10:31:05Z</time>
      </trkpt>
      <trkpt lat="43.98384" lon="5.25254">
        <ele>673.54</ele>
        <time>2020-02-24T10:31:19Z</time>
      </trkpt>
      <trkpt lat="43.98367" lon="5.25245">
        <ele>673.06</ele>
        <time>2020-02-24T10:31:35Z</time>
      </trkpt>
      <trkpt lat="43.98357" lon="5.25238">
        <ele>672.58</ele>
        <time>2020-02-24T10:31:45Z</time>
      </trkpt>
      <trkpt lat="43.98361" lon="5.25234">
        <ele>672.58</ele>
        <time>2020-02-24T10:31:50Z</time>
      </trkpt>
      <trkpt lat="43.98363" lon="5.25234">
        <ele>672.58</ele>
        <time>2020-02-24T10:31:52Z</time>
      </trkpt>
      <trkpt lat="43.9838" lon="5.25238">
        <ele>671.14</ele>
        <time>2020-02-24T10:32:08Z</time>
      </trkpt>
      <trkpt lat="43.98393" lon="5.25242">
        <ele>669.7</ele>
        <time>2020-02-24T10:32:19Z</time>
      </trkpt>
      <trkpt lat="43.98402" lon="5.25247">
        <ele>668.73</ele>
        <time>2020-02-24T10:32:30Z</time>
      </trkpt>
      <trkpt lat="43.98422" lon="5.25248">
        <ele>667.77</ele>
        <time>2020-02-24T10:32:46Z</time>
      </trkpt>
      <trkpt lat="43.98442" lon="5.25245">
        <ele>665.85</ele>
        <time>2020-02-24T10:33:03Z</time>
      </trkpt>
      <trkpt lat="43.98457" lon="5.25237">
        <ele>664.41</ele>
        <time>2020-02-24T10:33:18Z</time>
      </trkpt>
      <trkpt lat="43.98469" lon="5.25219">
        <ele>663.45</ele>
        <time>2020-02-24T10:33:34Z</time>
      </trkpt>
      <trkpt lat="43.98472" lon="5.25214">
        <ele>663.45</ele>
        <time>2020-02-24T10:33:58Z</time>
      </trkpt>
      <trkpt lat="43.98476" lon="5.25205">
        <ele>662.97</ele>
        <time>2020-02-24T10:34:17Z</time>
      </trkpt>
      <trkpt lat="43.98479" lon="5.25199">
        <ele>662.01</ele>
        <time>2020-02-24T10:34:29Z</time>
      </trkpt>
      <trkpt lat="43.9848" lon="5.25198">
        <ele>662.01</ele>
        <time>2020-02-24T10:34:49Z</time>
      </trkpt>
      <trkpt lat="43.98485" lon="5.2519">
        <ele>662.01</ele>
        <time>2020-02-24T10:35:10Z</time>
      </trkpt>
      <trkpt lat="43.98485" lon="5.25188">
        <ele>662.01</ele>
        <time>2020-02-24T10:35:11Z</time>
      </trkpt>
      <trkpt lat="43.98487" lon="5.25182">
        <ele>662.01</ele>
        <time>2020-02-24T10:35:15Z</time>
      </trkpt>
      <trkpt lat="43.98494" lon="5.25158">
        <ele>660.56</ele>
        <time>2020-02-24T10:35:32Z</time>
      </trkpt>
      <trkpt lat="43.98501" lon="5.25141">
        <ele>658.64</ele>
        <time>2020-02-24T10:35:51Z</time>
      </trkpt>
      <trkpt lat="43.98501" lon="5.25134">
        <ele>657.2</ele>
        <time>2020-02-24T10:35:56Z</time>
      </trkpt>
      <trkpt lat="43.98503" lon="5.25118">
        <ele>656.72</ele>
        <time>2020-02-24T10:36:14Z</time>
      </trkpt>
      <trkpt lat="43.98497" lon="5.25113">
        <ele>656.24</ele>
        <time>2020-02-24T10:36:20Z</time>
      </trkpt>
      <trkpt lat="43.98495" lon="5.25113">
        <ele>656.24</ele>
        <time>2020-02-24T10:36:22Z</time>
      </trkpt>
      <trkpt lat="43.98485" lon="5.25108">
        <ele>655.76</ele>
        <time>2020-02-24T10:36:33Z</time>
      </trkpt>
      <trkpt lat="43.98484" lon="5.25109">
        <ele>655.76</ele>
        <time>2020-02-24T10:36:34Z</time>
      </trkpt>
      <trkpt lat="43.98467" lon="5.2512">
        <ele>654.31</ele>
        <time>2020-02-24T10:36:51Z</time>
      </trkpt>
      <trkpt lat="43.98447" lon="5.25131">
        <ele>653.35</ele>
        <time>2020-02-24T10:37:11Z</time>
      </trkpt>
      <trkpt lat="43.98429" lon="5.25129">
        <ele>652.87</ele>
        <time>2020-02-24T10:37:27Z</time>
      </trkpt>
      <trkpt lat="43.98417" lon="5.25124">
        <ele>651.43</ele>
        <time>2020-02-24T10:37:40Z</time>
      </trkpt>
      <trkpt lat="43.98406" lon="5.2512">
        <ele>649.99</ele>
        <time>2020-02-24T10:37:52Z</time>
      </trkpt>
      <trkpt lat="43.98404" lon="5.25117">
        <ele>649.99</ele>
        <time>2020-02-24T10:37:54Z</time>
      </trkpt>
      <trkpt lat="43.98402" lon="5.25114">
        <ele>649.99</ele>
        <time>2020-02-24T10:37:56Z</time>
      </trkpt>
      <trkpt lat="43.98396" lon="5.25096">
        <ele>649.51</ele>
        <time>2020-02-24T10:38:06Z</time>
      </trkpt>
      <trkpt lat="43.98393" lon="5.25084">
        <ele>649.51</ele>
        <time>2020-02-24T10:38:14Z</time>
      </trkpt>
      <trkpt lat="43.98382" lon="5.25069">
        <ele>649.51</ele>
        <time>2020-02-24T10:38:28Z</time>
      </trkpt>
      <trkpt lat="43.98365" lon="5.25053">
        <ele>649.99</ele>
        <time>2020-02-24T10:38:42Z</time>
      </trkpt>
      <trkpt lat="43.98352" lon="5.25041">
        <ele>649.99</ele>
        <time>2020-02-24T10:38:56Z</time>
      </trkpt>
      <trkpt lat="43.98333" lon="5.2504">
        <ele>649.99</ele>
        <time>2020-02-24T10:39:09Z</time>
      </trkpt>
      <trkpt lat="43.98331" lon="5.25041">
        <ele>649.99</ele>
        <time>2020-02-24T10:39:11Z</time>
      </trkpt>
      <trkpt lat="43.98316" lon="5.25047">
        <ele>649.99</ele>
        <time>2020-02-24T10:39:24Z</time>
      </trkpt>
      <trkpt lat="43.98313" lon="5.25047">
        <ele>649.99</ele>
        <time>2020-02-24T10:39:26Z</time>
      </trkpt>
      <trkpt lat="43.98303" lon="5.25052">
        <ele>649.99</ele>
        <time>2020-02-24T10:39:36Z</time>
      </trkpt>
      <trkpt lat="43.98284" lon="5.25039">
        <ele>649.99</ele>
        <time>2020-02-24T10:39:56Z</time>
      </trkpt>
      <trkpt lat="43.9827" lon="5.25019">
        <ele>649.99</ele>
        <time>2020-02-24T10:40:12Z</time>
      </trkpt>
      <trkpt lat="43.98256" lon="5.24994">
        <ele>649.51</ele>
        <time>2020-02-24T10:40:32Z</time>
      </trkpt>
      <trkpt lat="43.98253" lon="5.24989">
        <ele>649.99</ele>
        <time>2020-02-24T10:40:36Z</time>
      </trkpt>
      <trkpt lat="43.98249" lon="5.24979">
        <ele>650.47</ele>
        <time>2020-02-24T10:40:53Z</time>
      </trkpt>
      <trkpt lat="43.98243" lon="5.24966">
        <ele>649.99</ele>
        <time>2020-02-24T10:41:12Z</time>
      </trkpt>
      <trkpt lat="43.98221" lon="5.24947">
        <ele>650.47</ele>
        <time>2020-02-24T10:41:31Z</time>
      </trkpt>
      <trkpt lat="43.98213" lon="5.24941">
        <ele>649.99</ele>
        <time>2020-02-24T10:41:49Z</time>
      </trkpt>
      <trkpt lat="43.98213" lon="5.24935">
        <ele>649.99</ele>
        <time>2020-02-24T10:42:19Z</time>
      </trkpt>
      <trkpt lat="43.98212" lon="5.24934">
        <ele>649.99</ele>
        <time>2020-02-24T10:42:20Z</time>
      </trkpt>
      <trkpt lat="43.98204" lon="5.24934">
        <ele>649.51</ele>
        <time>2020-02-24T10:42:27Z</time>
      </trkpt>
      <trkpt lat="43.98202" lon="5.24933">
        <ele>649.51</ele>
        <time>2020-02-24T10:42:29Z</time>
      </trkpt>
      <trkpt lat="43.98189" lon="5.24925">
        <ele>649.51</ele>
        <time>2020-02-24T10:42:43Z</time>
      </trkpt>
      <trkpt lat="43.98174" lon="5.24922">
        <ele>649.99</ele>
        <time>2020-02-24T10:43:00Z</time>
      </trkpt>
      <trkpt lat="43.9816" lon="5.24925">
        <ele>650.47</ele>
        <time>2020-02-24T10:43:14Z</time>
      </trkpt>
      <trkpt lat="43.98151" lon="5.24925">
        <ele>650.47</ele>
        <time>2020-02-24T10:43:19Z</time>
      </trkpt>
      <trkpt lat="43.98117" lon="5.24944">
        <ele>650.47</ele>
        <time>2020-02-24T10:43:41Z</time>
      </trkpt>
      <trkpt lat="43.98099" lon="5.24961">
        <ele>650.47</ele>
        <time>2020-02-24T10:44:00Z</time>
      </trkpt>
      <trkpt lat="43.9809" lon="5.24966">
        <ele>650.47</ele>
        <time>2020-02-24T10:44:07Z</time>
      </trkpt>
      <trkpt lat="43.98078" lon="5.24971">
        <ele>650.47</ele>
        <time>2020-02-24T10:44:16Z</time>
      </trkpt>
      <trkpt lat="43.98054" lon="5.24973">
        <ele>650.95</ele>
        <time>2020-02-24T10:44:34Z</time>
      </trkpt>
      <trkpt lat="43.98047" lon="5.2497">
        <ele>650.47</ele>
        <time>2020-02-24T10:44:40Z</time>
      </trkpt>
      <trkpt lat="43.98029" lon="5.2496">
        <ele>650.47</ele>
        <time>2020-02-24T10:44:56Z</time>
      </trkpt>
      <trkpt lat="43.98023" lon="5.24955">
        <ele>650.47</ele>
        <time>2020-02-24T10:45:01Z</time>
      </trkpt>
      <trkpt lat="43.98001" lon="5.24937">
        <ele>649.99</ele>
        <time>2020-02-24T10:45:20Z</time>
      </trkpt>
      <trkpt lat="43.97994" lon="5.24927">
        <ele>649.99</ele>
        <time>2020-02-24T10:45:27Z</time>
      </trkpt>
      <trkpt lat="43.9799" lon="5.24904">
        <ele>649.99</ele>
        <time>2020-02-24T10:45:41Z</time>
      </trkpt>
      <trkpt lat="43.97991" lon="5.24887">
        <ele>649.99</ele>
        <time>2020-02-24T10:45:51Z</time>
      </trkpt>
      <trkpt lat="43.97995" lon="5.24872">
        <ele>649.99</ele>
        <time>2020-02-24T10:45:59Z</time>
      </trkpt>
      <trkpt lat="43.97997" lon="5.24868">
        <ele>649.99</ele>
        <time>2020-02-24T10:46:02Z</time>
      </trkpt>
      <trkpt lat="43.98008" lon="5.24841">
        <ele>649.51</ele>
        <time>2020-02-24T10:46:18Z</time>
      </trkpt>
      <trkpt lat="43.98027" lon="5.2482">
        <ele>649.99</ele>
        <time>2020-02-24T10:46:35Z</time>
      </trkpt>
      <trkpt lat="43.98038" lon="5.2481">
        <ele>649.51</ele>
        <time>2020-02-24T10:46:45Z</time>
      </trkpt>
      <trkpt lat="43.98054" lon="5.24793">
        <ele>649.51</ele>
        <time>2020-02-24T10:46:59Z</time>
      </trkpt>
      <trkpt lat="43.98055" lon="5.24791">
        <ele>649.51</ele>
        <time>2020-02-24T10:47:00Z</time>
      </trkpt>
      <trkpt lat="43.98057" lon="5.2479">
        <ele>649.51</ele>
        <time>2020-02-24T10:47:02Z</time>
      </trkpt>
      <trkpt lat="43.98065" lon="5.2478">
        <ele>649.99</ele>
        <time>2020-02-24T10:47:11Z</time>
      </trkpt>
      <trkpt lat="43.98079" lon="5.24759">
        <ele>651.43</ele>
        <time>2020-02-24T10:47:29Z</time>
      </trkpt>
      <trkpt lat="43.98097" lon="5.24725">
        <ele>652.39</ele>
        <time>2020-02-24T10:47:51Z</time>
      </trkpt>
      <trkpt lat="43.981" lon="5.24717">
        <ele>652.39</ele>
        <time>2020-02-24T10:47:56Z</time>
      </trkpt>
      <trkpt lat="43.98112" lon="5.24697">
        <ele>652.87</ele>
        <time>2020-02-24T10:48:08Z</time>
      </trkpt>
      <trkpt lat="43.98127" lon="5.24682">
        <ele>652.87</ele>
        <time>2020-02-24T10:48:25Z</time>
      </trkpt>
      <trkpt lat="43.98143" lon="5.24666">
        <ele>652.39</ele>
        <time>2020-02-24T10:48:38Z</time>
      </trkpt>
      <trkpt lat="43.98154" lon="5.24654">
        <ele>651.91</ele>
        <time>2020-02-24T10:48:49Z</time>
      </trkpt>
      <trkpt lat="43.98163" lon="5.24636">
        <ele>651.91</ele>
        <time>2020-02-24T10:49:08Z</time>
      </trkpt>
      <trkpt lat="43.98178" lon="5.24616">
        <ele>651.43</ele>
        <time>2020-02-24T10:49:28Z</time>
      </trkpt>
      <trkpt lat="43.98185" lon="5.24606">
        <ele>651.43</ele>
        <time>2020-02-24T10:49:44Z</time>
      </trkpt>
      <trkpt lat="43.9819" lon="5.24601">
        <ele>651.43</ele>
        <time>2020-02-24T10:50:07Z</time>
      </trkpt>
      <trkpt lat="43.98195" lon="5.24593">
        <ele>651.43</ele>
        <time>2020-02-24T10:50:17Z</time>
      </trkpt>
      <trkpt lat="43.98204" lon="5.24583">
        <ele>651.43</ele>
        <time>2020-02-24T10:50:30Z</time>
      </trkpt>
      <trkpt lat="43.98213" lon="5.24572">
        <ele>650.47</ele>
        <time>2020-02-24T10:50:44Z</time>
      </trkpt>
      <trkpt lat="43.98219" lon="5.24566">
        <ele>650.47</ele>
        <time>2020-02-24T10:51:06Z</time>
      </trkpt>
      <trkpt lat="43.98222" lon="5.24565">
        <ele>650.47</ele>
        <time>2020-02-24T10:51:28Z</time>
      </trkpt>
      <trkpt lat="43.98221" lon="5.24566">
        <ele>649.99</ele>
        <time>2020-02-24T10:52:05Z</time>
      </trkpt>
      <trkpt lat="43.98222" lon="5.24565">
        <ele>649.99</ele>
        <time>2020-02-24T10:52:40Z</time>
      </trkpt>
      <trkpt lat="43.98223" lon="5.24564">
        <ele>649.99</ele>
        <time>2020-02-24T10:53:02Z</time>
      </trkpt>
      <trkpt lat="43.98224" lon="5.24563">
        <ele>649.99</ele>
        <time>2020-02-24T10:53:28Z</time>
      </trkpt>
      <trkpt lat="43.98223" lon="5.24561">
        <ele>649.99</ele>
        <time>2020-02-24T10:54:03Z</time>
      </trkpt>
      <trkpt lat="43.98222" lon="5.2456">
        <ele>649.99</ele>
        <time>2020-02-24T10:54:29Z</time>
      </trkpt>
      <trkpt lat="43.9822" lon="5.24562">
        <ele>649.99</ele>
        <time>2020-02-24T10:55:00Z</time>
      </trkpt>
      <trkpt lat="43.98225" lon="5.24561">
        <ele>649.99</ele>
        <time>2020-02-24T10:55:36Z</time>
      </trkpt>
      <trkpt lat="43.98227" lon="5.2456">
        <ele>649.99</ele>
        <time>2020-02-24T10:56:10Z</time>
      </trkpt>
      <trkpt lat="43.98228" lon="5.24558">
        <ele>649.99</ele>
        <time>2020-02-24T10:56:49Z</time>
      </trkpt>
      <trkpt lat="43.98225" lon="5.24559">
        <ele>649.99</ele>
        <time>2020-02-24T10:57:25Z</time>
      </trkpt>
      <trkpt lat="43.98228" lon="5.24559">
        <ele>649.99</ele>
        <time>2020-02-24T10:58:00Z</time>
      </trkpt>
      <trkpt lat="43.98227" lon="5.24557">
        <ele>649.99</ele>
        <time>2020-02-24T10:58:36Z</time>
      </trkpt>
      <trkpt lat="43.98227" lon="5.24557">
        <ele>649.99</ele>
        <time>2020-02-24T10:59:10Z</time>
      </trkpt>
      <trkpt lat="43.98226" lon="5.24558">
        <ele>649.99</ele>
        <time>2020-02-24T10:59:48Z</time>
      </trkpt>
      <trkpt lat="43.98223" lon="5.24561">
        <ele>649.99</ele>
        <time>2020-02-24T11:00:25Z</time>
      </trkpt>
      <trkpt lat="43.98225" lon="5.24562">
        <ele>649.99</ele>
        <time>2020-02-24T11:01:06Z</time>
      </trkpt>
      <trkpt lat="43.98221" lon="5.24562">
        <ele>649.99</ele>
        <time>2020-02-24T11:01:47Z</time>
      </trkpt>
      <trkpt lat="43.9822" lon="5.24563">
        <ele>649.99</ele>
        <time>2020-02-24T11:02:28Z</time>
      </trkpt>
      <trkpt lat="43.98222" lon="5.24563">
        <ele>649.99</ele>
        <time>2020-02-24T11:03:06Z</time>
      </trkpt>
      <trkpt lat="43.98225" lon="5.24563">
        <ele>649.99</ele>
        <time>2020-02-24T11:03:51Z</time>
      </trkpt>
      <trkpt lat="43.98226" lon="5.24563">
        <ele>649.99</ele>
        <time>2020-02-24T11:04:44Z</time>
      </trkpt>
      <trkpt lat="43.98227" lon="5.24563">
        <ele>649.99</ele>
        <time>2020-02-24T11:05:18Z</time>
      </trkpt>
      <trkpt lat="43.98226" lon="5.24565">
        <ele>649.99</ele>
        <time>2020-02-24T11:05:57Z</time>
      </trkpt>
      <trkpt lat="43.98222" lon="5.24559">
        <ele>649.99</ele>
        <time>2020-02-24T11:06:40Z</time>
      </trkpt>
      <trkpt lat="43.98218" lon="5.2456">
        <ele>649.99</ele>
        <time>2020-02-24T11:07:35Z</time>
      </trkpt>
      <trkpt lat="43.98221" lon="5.24562">
        <ele>649.99</ele>
        <time>2020-02-24T11:08:14Z</time>
      </trkpt>
      <trkpt lat="43.98221" lon="5.24563">
        <ele>649.99</ele>
        <time>2020-02-24T11:08:50Z</time>
      </trkpt>
      <trkpt lat="43.98222" lon="5.24562">
        <ele>649.99</ele>
        <time>2020-02-24T11:09:29Z</time>
      </trkpt>
      <trkpt lat="43.98222" lon="5.24562">
        <ele>649.99</ele>
        <time>2020-02-24T11:10:00Z</time>
      </trkpt>
      <trkpt lat="43.98224" lon="5.24562">
        <ele>649.99</ele>
        <time>2020-02-24T11:10:30Z</time>
      </trkpt>
      <trkpt lat="43.98222" lon="5.24564">
        <ele>649.99</ele>
        <time>2020-02-24T11:10:59Z</time>
      </trkpt>
      <trkpt lat="43.98222" lon="5.24562">
        <ele>649.99</ele>
        <time>2020-02-24T11:11:36Z</time>
      </trkpt>
      <trkpt lat="43.98221" lon="5.24563">
        <ele>649.99</ele>
        <time>2020-02-24T11:12:14Z</time>
      </trkpt>
      <trkpt lat="43.98221" lon="5.24565">
        <ele>649.99</ele>
        <time>2020-02-24T11:12:48Z</time>
      </trkpt>
      <trkpt lat="43.9822" lon="5.24566">
        <ele>649.99</ele>
        <time>2020-02-24T11:13:22Z</time>
      </trkpt>
      <trkpt lat="43.9822" lon="5.24565">
        <ele>649.99</ele>
        <time>2020-02-24T11:13:59Z</time>
      </trkpt>
      <trkpt lat="43.98221" lon="5.24562">
        <ele>649.99</ele>
        <time>2020-02-24T11:14:40Z</time>
      </trkpt>
      <trkpt lat="43.9822" lon="5.24563">
        <ele>649.99</ele>
        <time>2020-02-24T11:15:18Z</time>
      </trkpt>
      <trkpt lat="43.98224" lon="5.24566">
        <ele>649.99</ele>
        <time>2020-02-24T11:15:49Z</time>
      </trkpt>
      <trkpt lat="43.98224" lon="5.24565">
        <ele>649.99</ele>
        <time>2020-02-24T11:16:23Z</time>
      </trkpt>
      <trkpt lat="43.98221" lon="5.24562">
        <ele>649.99</ele>
        <time>2020-02-24T11:17:12Z</time>
      </trkpt>
      <trkpt lat="43.98222" lon="5.24562">
        <ele>649.99</ele>
        <time>2020-02-24T11:18:49Z</time>
      </trkpt>
      <trkpt lat="43.98222" lon="5.24561">
        <ele>649.99</ele>
        <time>2020-02-24T11:20:27Z</time>
      </trkpt>
      <trkpt lat="43.98223" lon="5.24562">
        <ele>649.99</ele>
        <time>2020-02-24T11:22:02Z</time>
      </trkpt>
      <trkpt lat="43.98222" lon="5.24561">
        <ele>649.99</ele>
        <time>2020-02-24T11:23:15Z</time>
      </trkpt>
      <trkpt lat="43.98225" lon="5.24565">
        <ele>649.99</ele>
        <time>2020-02-24T11:24:22Z</time>
      </trkpt>
      <trkpt lat="43.98225" lon="5.24565">
        <ele>649.99</ele>
        <time>2020-02-24T11:25:40Z</time>
      </trkpt>
      <trkpt lat="43.98222" lon="5.24564">
        <ele>649.99</ele>
        <time>2020-02-24T11:26:42Z</time>
      </trkpt>
      <trkpt lat="43.9822" lon="5.24562">
        <ele>649.99</ele>
        <time>2020-02-24T11:29:04Z</time>
      </trkpt>
      <trkpt lat="43.9822" lon="5.2456">
        <ele>649.99</ele>
        <time>2020-02-24T11:30:48Z</time>
      </trkpt>
      <trkpt lat="43.9822" lon="5.24561">
        <ele>649.99</ele>
        <time>2020-02-24T11:31:45Z</time>
      </trkpt>
      <trkpt lat="43.98218" lon="5.24565">
        <ele>649.99</ele>
        <time>2020-02-24T11:33:00Z</time>
      </trkpt>
      <trkpt lat="43.98219" lon="5.24563">
        <ele>649.99</ele>
        <time>2020-02-24T11:33:47Z</time>
      </trkpt>
      <trkpt lat="43.98219" lon="5.24562">
        <ele>649.99</ele>
        <time>2020-02-24T11:34:21Z</time>
      </trkpt>
      <trkpt lat="43.98216" lon="5.24558">
        <ele>649.99</ele>
        <time>2020-02-24T11:34:53Z</time>
      </trkpt>
      <trkpt lat="43.98216" lon="5.24556">
        <ele>649.99</ele>
        <time>2020-02-24T11:35:30Z</time>
      </trkpt>
      <trkpt lat="43.98219" lon="5.2456">
        <ele>649.99</ele>
        <time>2020-02-24T11:36:05Z</time>
      </trkpt>
      <trkpt lat="43.98217" lon="5.24559">
        <ele>649.99</ele>
        <time>2020-02-24T11:36:43Z</time>
      </trkpt>
      <trkpt lat="43.98218" lon="5.24561">
        <ele>649.99</ele>
        <time>2020-02-24T11:37:44Z</time>
      </trkpt>
      <trkpt lat="43.98218" lon="5.24562">
        <ele>649.99</ele>
        <time>2020-02-24T11:38:19Z</time>
      </trkpt>
      <trkpt lat="43.98218" lon="5.24563">
        <ele>649.99</ele>
        <time>2020-02-24T11:38:55Z</time>
      </trkpt>
      <trkpt lat="43.98218" lon="5.24561">
        <ele>649.99</ele>
        <time>2020-02-24T11:39:52Z</time>
      </trkpt>
      <trkpt lat="43.98218" lon="5.24558">
        <ele>649.99</ele>
        <time>2020-02-24T11:40:19Z</time>
      </trkpt>
      <trkpt lat="43.9822" lon="5.24559">
        <ele>649.99</ele>
        <time>2020-02-24T11:40:55Z</time>
      </trkpt>
      <trkpt lat="43.9822" lon="5.24558">
        <ele>649.99</ele>
        <time>2020-02-24T11:41:27Z</time>
      </trkpt>
      <trkpt lat="43.9821" lon="5.24563">
        <ele>649.99</ele>
        <time>2020-02-24T11:41:48Z</time>
      </trkpt>
      <trkpt lat="43.98194" lon="5.24557">
        <ele>649.99</ele>
        <time>2020-02-24T11:42:09Z</time>
      </trkpt>
      <trkpt lat="43.98185" lon="5.24556">
        <ele>653.35</ele>
        <time>2020-02-24T11:42:18Z</time>
      </trkpt>
      <trkpt lat="43.98162" lon="5.24562">
        <ele>655.28</ele>
        <time>2020-02-24T11:42:40Z</time>
      </trkpt>
      <trkpt lat="43.98144" lon="5.24568">
        <ele>655.76</ele>
        <time>2020-02-24T11:42:55Z</time>
      </trkpt>
      <trkpt lat="43.98119" lon="5.24575">
        <ele>656.72</ele>
        <time>2020-02-24T11:43:19Z</time>
      </trkpt>
      <trkpt lat="43.98101" lon="5.24579">
        <ele>657.2</ele>
        <time>2020-02-24T11:43:35Z</time>
      </trkpt>
      <trkpt lat="43.98078" lon="5.24583">
        <ele>658.16</ele>
        <time>2020-02-24T11:43:56Z</time>
      </trkpt>
      <trkpt lat="43.98056" lon="5.24592">
        <ele>658.16</ele>
        <time>2020-02-24T11:44:12Z</time>
      </trkpt>
      <trkpt lat="43.98039" lon="5.24599">
        <ele>658.16</ele>
        <time>2020-02-24T11:44:28Z</time>
      </trkpt>
      <trkpt lat="43.98023" lon="5.24607">
        <ele>657.68</ele>
        <time>2020-02-24T11:44:42Z</time>
      </trkpt>
      <trkpt lat="43.97996" lon="5.24608">
        <ele>658.16</ele>
        <time>2020-02-24T11:45:05Z</time>
      </trkpt>
      <trkpt lat="43.97975" lon="5.24612">
        <ele>657.2</ele>
        <time>2020-02-24T11:45:23Z</time>
      </trkpt>
      <trkpt lat="43.97955" lon="5.24616">
        <ele>656.24</ele>
        <time>2020-02-24T11:45:40Z</time>
      </trkpt>
      <trkpt lat="43.97939" lon="5.24617">
        <ele>655.76</ele>
        <time>2020-02-24T11:45:56Z</time>
      </trkpt>
      <trkpt lat="43.97916" lon="5.24617">
        <ele>654.8</ele>
        <time>2020-02-24T11:46:12Z</time>
      </trkpt>
      <trkpt lat="43.97896" lon="5.2462">
        <ele>652.87</ele>
        <time>2020-02-24T11:46:30Z</time>
      </trkpt>
      <trkpt lat="43.97894" lon="5.2462">
        <ele>652.87</ele>
        <time>2020-02-24T11:46:32Z</time>
      </trkpt>
      <trkpt lat="43.97874" lon="5.24615">
        <ele>651.43</ele>
        <time>2020-02-24T11:46:48Z</time>
      </trkpt>
      <trkpt lat="43.97866" lon="5.24606">
        <ele>650.95</ele>
        <time>2020-02-24T11:46:56Z</time>
      </trkpt>
      <trkpt lat="43.97853" lon="5.24588">
        <ele>649.99</ele>
        <time>2020-02-24T11:47:11Z</time>
      </trkpt>
      <trkpt lat="43.9784" lon="5.24564">
        <ele>649.03</ele>
        <time>2020-02-24T11:47:29Z</time>
      </trkpt>
      <trkpt lat="43.9784" lon="5.24562">
        <ele>649.03</ele>
        <time>2020-02-24T11:47:30Z</time>
      </trkpt>
      <trkpt lat="43.97829" lon="5.24534">
        <ele>649.03</ele>
        <time>2020-02-24T11:47:49Z</time>
      </trkpt>
      <trkpt lat="43.97825" lon="5.24523">
        <ele>649.03</ele>
        <time>2020-02-24T11:47:56Z</time>
      </trkpt>
      <trkpt lat="43.97822" lon="5.2451">
        <ele>649.03</ele>
        <time>2020-02-24T11:48:03Z</time>
      </trkpt>
      <trkpt lat="43.9781" lon="5.24485">
        <ele>649.03</ele>
        <time>2020-02-24T11:48:20Z</time>
      </trkpt>
      <trkpt lat="43.978" lon="5.24466">
        <ele>648.07</ele>
        <time>2020-02-24T11:48:35Z</time>
      </trkpt>
      <trkpt lat="43.97795" lon="5.24437">
        <ele>647.59</ele>
        <time>2020-02-24T11:48:53Z</time>
      </trkpt>
      <trkpt lat="43.97797" lon="5.24411">
        <ele>647.59</ele>
        <time>2020-02-24T11:49:08Z</time>
      </trkpt>
      <trkpt lat="43.97801" lon="5.24382">
        <ele>647.1</ele>
        <time>2020-02-24T11:49:24Z</time>
      </trkpt>
      <trkpt lat="43.97803" lon="5.24372">
        <ele>647.1</ele>
        <time>2020-02-24T11:49:31Z</time>
      </trkpt>
      <trkpt lat="43.97805" lon="5.24344">
        <ele>644.7</ele>
        <time>2020-02-24T11:49:47Z</time>
      </trkpt>
      <trkpt lat="43.97813" lon="5.24319">
        <ele>644.22</ele>
        <time>2020-02-24T11:50:02Z</time>
      </trkpt>
      <trkpt lat="43.97812" lon="5.24312">
        <ele>644.22</ele>
        <time>2020-02-24T11:50:07Z</time>
      </trkpt>
      <trkpt lat="43.97799" lon="5.24304">
        <ele>643.74</ele>
        <time>2020-02-24T11:50:20Z</time>
      </trkpt>
      <trkpt lat="43.97797" lon="5.24304">
        <ele>643.26</ele>
        <time>2020-02-24T11:50:22Z</time>
      </trkpt>
      <trkpt lat="43.97776" lon="5.24308">
        <ele>642.3</ele>
        <time>2020-02-24T11:50:39Z</time>
      </trkpt>
      <trkpt lat="43.9775" lon="5.24311">
        <ele>641.34</ele>
        <time>2020-02-24T11:50:58Z</time>
      </trkpt>
      <trkpt lat="43.9773" lon="5.24307">
        <ele>640.38</ele>
        <time>2020-02-24T11:51:15Z</time>
      </trkpt>
      <trkpt lat="43.97712" lon="5.24299">
        <ele>639.41</ele>
        <time>2020-02-24T11:51:29Z</time>
      </trkpt>
      <trkpt lat="43.97696" lon="5.24285">
        <ele>638.45</ele>
        <time>2020-02-24T11:51:44Z</time>
      </trkpt>
      <trkpt lat="43.97681" lon="5.24264">
        <ele>637.01</ele>
        <time>2020-02-24T11:52:00Z</time>
      </trkpt>
      <trkpt lat="43.9767" lon="5.2424">
        <ele>635.57</ele>
        <time>2020-02-24T11:52:16Z</time>
      </trkpt>
      <trkpt lat="43.97668" lon="5.24234">
        <ele>635.57</ele>
        <time>2020-02-24T11:52:20Z</time>
      </trkpt>
      <trkpt lat="43.97659" lon="5.2421">
        <ele>634.61</ele>
        <time>2020-02-24T11:52:35Z</time>
      </trkpt>
      <trkpt lat="43.97657" lon="5.24207">
        <ele>634.61</ele>
        <time>2020-02-24T11:52:37Z</time>
      </trkpt>
      <trkpt lat="43.97648" lon="5.2418">
        <ele>634.13</ele>
        <time>2020-02-24T11:52:54Z</time>
      </trkpt>
      <trkpt lat="43.97642" lon="5.24148">
        <ele>634.13</ele>
        <time>2020-02-24T11:53:12Z</time>
      </trkpt>
      <trkpt lat="43.97636" lon="5.24122">
        <ele>634.61</ele>
        <time>2020-02-24T11:53:29Z</time>
      </trkpt>
      <trkpt lat="43.97631" lon="5.24101">
        <ele>634.61</ele>
        <time>2020-02-24T11:53:42Z</time>
      </trkpt>
      <trkpt lat="43.97624" lon="5.24079">
        <ele>634.61</ele>
        <time>2020-02-24T11:53:56Z</time>
      </trkpt>
      <trkpt lat="43.97622" lon="5.24074">
        <ele>635.09</ele>
        <time>2020-02-24T11:53:59Z</time>
      </trkpt>
      <trkpt lat="43.97619" lon="5.24066">
        <ele>635.57</ele>
        <time>2020-02-24T11:54:04Z</time>
      </trkpt>
      <trkpt lat="43.97613" lon="5.24039">
        <ele>635.57</ele>
        <time>2020-02-24T11:54:21Z</time>
      </trkpt>
      <trkpt lat="43.97605" lon="5.24017">
        <ele>635.09</ele>
        <time>2020-02-24T11:54:34Z</time>
      </trkpt>
      <trkpt lat="43.97604" lon="5.23986">
        <ele>635.57</ele>
        <time>2020-02-24T11:54:51Z</time>
      </trkpt>
      <trkpt lat="43.97604" lon="5.23973">
        <ele>635.57</ele>
        <time>2020-02-24T11:54:57Z</time>
      </trkpt>
      <trkpt lat="43.97604" lon="5.23952">
        <ele>637.49</ele>
        <time>2020-02-24T11:55:12Z</time>
      </trkpt>
      <trkpt lat="43.97605" lon="5.23941">
        <ele>638.93</ele>
        <time>2020-02-24T11:55:19Z</time>
      </trkpt>
      <trkpt lat="43.97617" lon="5.23915">
        <ele>639.89</ele>
        <time>2020-02-24T11:55:38Z</time>
      </trkpt>
      <trkpt lat="43.97636" lon="5.239">
        <ele>638.93</ele>
        <time>2020-02-24T11:55:55Z</time>
      </trkpt>
      <trkpt lat="43.97654" lon="5.23887">
        <ele>637.49</ele>
        <time>2020-02-24T11:56:13Z</time>
      </trkpt>
      <trkpt lat="43.97671" lon="5.23873">
        <ele>637.49</ele>
        <time>2020-02-24T11:56:28Z</time>
      </trkpt>
      <trkpt lat="43.97686" lon="5.23857">
        <ele>637.97</ele>
        <time>2020-02-24T11:56:43Z</time>
      </trkpt>
      <trkpt lat="43.97703" lon="5.23847">
        <ele>637.97</ele>
        <time>2020-02-24T11:56:58Z</time>
      </trkpt>
      <trkpt lat="43.9771" lon="5.23843">
        <ele>638.93</ele>
        <time>2020-02-24T11:57:05Z</time>
      </trkpt>
      <trkpt lat="43.97727" lon="5.2384">
        <ele>639.89</ele>
        <time>2020-02-24T11:57:19Z</time>
      </trkpt>
      <trkpt lat="43.97741" lon="5.23837">
        <ele>641.34</ele>
        <time>2020-02-24T11:57:32Z</time>
      </trkpt>
      <trkpt lat="43.97753" lon="5.23836">
        <ele>642.3</ele>
        <time>2020-02-24T11:57:41Z</time>
      </trkpt>
      <trkpt lat="43.97767" lon="5.23831">
        <ele>643.74</ele>
        <time>2020-02-24T11:57:55Z</time>
      </trkpt>
      <trkpt lat="43.97766" lon="5.23813">
        <ele>642.78</ele>
        <time>2020-02-24T11:58:09Z</time>
      </trkpt>
      <trkpt lat="43.97762" lon="5.2381">
        <ele>643.26</ele>
        <time>2020-02-24T11:58:14Z</time>
      </trkpt>
      <trkpt lat="43.97757" lon="5.23809">
        <ele>643.26</ele>
        <time>2020-02-24T11:58:18Z</time>
      </trkpt>
      <trkpt lat="43.97737" lon="5.23803">
        <ele>642.78</ele>
        <time>2020-02-24T11:58:34Z</time>
      </trkpt>
      <trkpt lat="43.97713" lon="5.23798">
        <ele>641.34</ele>
        <time>2020-02-24T11:58:51Z</time>
      </trkpt>
      <trkpt lat="43.97697" lon="5.23791">
        <ele>641.34</ele>
        <time>2020-02-24T11:59:04Z</time>
      </trkpt>
      <trkpt lat="43.9768" lon="5.23784">
        <ele>642.3</ele>
        <time>2020-02-24T11:59:21Z</time>
      </trkpt>
      <trkpt lat="43.97648" lon="5.23775">
        <ele>643.26</ele>
        <time>2020-02-24T11:59:43Z</time>
      </trkpt>
      <trkpt lat="43.97637" lon="5.2377">
        <ele>642.78</ele>
        <time>2020-02-24T11:59:53Z</time>
      </trkpt>
      <trkpt lat="43.97618" lon="5.23761">
        <ele>641.82</ele>
        <time>2020-02-24T12:00:08Z</time>
      </trkpt>
      <trkpt lat="43.97599" lon="5.23748">
        <ele>640.38</ele>
        <time>2020-02-24T12:00:24Z</time>
      </trkpt>
      <trkpt lat="43.97579" lon="5.23734">
        <ele>639.89</ele>
        <time>2020-02-24T12:00:42Z</time>
      </trkpt>
      <trkpt lat="43.97573" lon="5.23731">
        <ele>639.89</ele>
        <time>2020-02-24T12:01:05Z</time>
      </trkpt>
      <trkpt lat="43.97567" lon="5.23731">
        <ele>639.89</ele>
        <time>2020-02-24T12:01:33Z</time>
      </trkpt>
      <trkpt lat="43.9755" lon="5.23718">
        <ele>639.41</ele>
        <time>2020-02-24T12:01:50Z</time>
      </trkpt>
      <trkpt lat="43.97548" lon="5.23714">
        <ele>638.93</ele>
        <time>2020-02-24T12:01:54Z</time>
      </trkpt>
      <trkpt lat="43.97535" lon="5.23701">
        <ele>638.45</ele>
        <time>2020-02-24T12:02:05Z</time>
      </trkpt>
      <trkpt lat="43.9753" lon="5.23682">
        <ele>638.45</ele>
        <time>2020-02-24T12:02:20Z</time>
      </trkpt>
      <trkpt lat="43.97522" lon="5.23657">
        <ele>636.05</ele>
        <time>2020-02-24T12:02:38Z</time>
      </trkpt>
      <trkpt lat="43.97515" lon="5.23633">
        <ele>633.17</ele>
        <time>2020-02-24T12:02:53Z</time>
      </trkpt>
      <trkpt lat="43.97507" lon="5.23609">
        <ele>631.24</ele>
        <time>2020-02-24T12:03:10Z</time>
      </trkpt>
      <trkpt lat="43.97492" lon="5.23593">
        <ele>628.84</ele>
        <time>2020-02-24T12:03:27Z</time>
      </trkpt>
      <trkpt lat="43.97484" lon="5.23595">
        <ele>627.4</ele>
        <time>2020-02-24T12:03:36Z</time>
      </trkpt>
      <trkpt lat="43.97471" lon="5.23596">
        <ele>625.47</ele>
        <time>2020-02-24T12:03:49Z</time>
      </trkpt>
      <trkpt lat="43.97451" lon="5.23603">
        <ele>623.55</ele>
        <time>2020-02-24T12:04:06Z</time>
      </trkpt>
      <trkpt lat="43.97432" lon="5.23611">
        <ele>620.67</ele>
        <time>2020-02-24T12:04:25Z</time>
      </trkpt>
      <trkpt lat="43.97406" lon="5.23613">
        <ele>617.3</ele>
        <time>2020-02-24T12:04:49Z</time>
      </trkpt>
      <trkpt lat="43.97384" lon="5.23614">
        <ele>615.38</ele>
        <time>2020-02-24T12:05:07Z</time>
      </trkpt>
      <trkpt lat="43.97371" lon="5.23615">
        <ele>613.94</ele>
        <time>2020-02-24T12:05:22Z</time>
      </trkpt>
      <trkpt lat="43.97366" lon="5.23615">
        <ele>612.98</ele>
        <time>2020-02-24T12:05:28Z</time>
      </trkpt>
      <trkpt lat="43.97343" lon="5.23614">
        <ele>612.5</ele>
        <time>2020-02-24T12:05:48Z</time>
      </trkpt>
      <trkpt lat="43.97329" lon="5.23614">
        <ele>612.02</ele>
        <time>2020-02-24T12:06:07Z</time>
      </trkpt>
      <trkpt lat="43.97313" lon="5.23613">
        <ele>610.57</ele>
        <time>2020-02-24T12:06:22Z</time>
      </trkpt>
      <trkpt lat="43.97301" lon="5.2361">
        <ele>609.61</ele>
        <time>2020-02-24T12:06:35Z</time>
      </trkpt>
      <trkpt lat="43.97274" lon="5.23603">
        <ele>606.73</ele>
        <time>2020-02-24T12:06:57Z</time>
      </trkpt>
      <trkpt lat="43.97253" lon="5.23595">
        <ele>605.29</ele>
        <time>2020-02-24T12:07:19Z</time>
      </trkpt>
      <trkpt lat="43.97237" lon="5.23592">
        <ele>604.33</ele>
        <time>2020-02-24T12:07:34Z</time>
      </trkpt>
      <trkpt lat="43.97233" lon="5.23591">
        <ele>603.85</ele>
        <time>2020-02-24T12:07:37Z</time>
      </trkpt>
      <trkpt lat="43.97212" lon="5.23586">
        <ele>600.96</ele>
        <time>2020-02-24T12:07:54Z</time>
      </trkpt>
      <trkpt lat="43.97195" lon="5.23581">
        <ele>598.56</ele>
        <time>2020-02-24T12:08:13Z</time>
      </trkpt>
      <trkpt lat="43.97172" lon="5.23567">
        <ele>596.64</ele>
        <time>2020-02-24T12:08:35Z</time>
      </trkpt>
      <trkpt lat="43.97157" lon="5.23554">
        <ele>595.19</ele>
        <time>2020-02-24T12:08:50Z</time>
      </trkpt>
      <trkpt lat="43.97152" lon="5.23551">
        <ele>595.19</ele>
        <time>2020-02-24T12:08:54Z</time>
      </trkpt>
      <trkpt lat="43.97136" lon="5.23537">
        <ele>594.23</ele>
        <time>2020-02-24T12:09:10Z</time>
      </trkpt>
      <trkpt lat="43.97118" lon="5.23516">
        <ele>592.31</ele>
        <time>2020-02-24T12:09:31Z</time>
      </trkpt>
      <trkpt lat="43.97115" lon="5.23503">
        <ele>591.83</ele>
        <time>2020-02-24T12:09:38Z</time>
      </trkpt>
      <trkpt lat="43.97107" lon="5.23494">
        <ele>591.35</ele>
        <time>2020-02-24T12:09:50Z</time>
      </trkpt>
      <trkpt lat="43.97086" lon="5.23491">
        <ele>590.87</ele>
        <time>2020-02-24T12:10:08Z</time>
      </trkpt>
      <trkpt lat="43.97082" lon="5.2349">
        <ele>590.39</ele>
        <time>2020-02-24T12:10:11Z</time>
      </trkpt>
      <trkpt lat="43.97077" lon="5.23489">
        <ele>589.91</ele>
        <time>2020-02-24T12:10:17Z</time>
      </trkpt>
      <trkpt lat="43.97071" lon="5.23487">
        <ele>589.43</ele>
        <time>2020-02-24T12:10:35Z</time>
      </trkpt>
      <trkpt lat="43.97057" lon="5.23479">
        <ele>588.46</ele>
        <time>2020-02-24T12:10:51Z</time>
      </trkpt>
      <trkpt lat="43.97041" lon="5.23473">
        <ele>586.06</ele>
        <time>2020-02-24T12:11:07Z</time>
      </trkpt>
      <trkpt lat="43.97027" lon="5.23464">
        <ele>584.62</ele>
        <time>2020-02-24T12:11:22Z</time>
      </trkpt>
      <trkpt lat="43.97015" lon="5.23455">
        <ele>582.7</ele>
        <time>2020-02-24T12:11:35Z</time>
      </trkpt>
      <trkpt lat="43.96999" lon="5.23446">
        <ele>580.29</ele>
        <time>2020-02-24T12:11:49Z</time>
      </trkpt>
      <trkpt lat="43.96996" lon="5.23453">
        <ele>578.37</ele>
        <time>2020-02-24T12:12:05Z</time>
      </trkpt>
      <trkpt lat="43.97001" lon="5.23459">
        <ele>578.37</ele>
        <time>2020-02-24T12:12:11Z</time>
      </trkpt>
      <trkpt lat="43.97019" lon="5.2348">
        <ele>577.41</ele>
        <time>2020-02-24T12:12:30Z</time>
      </trkpt>
      <trkpt lat="43.97028" lon="5.23491">
        <ele>575.97</ele>
        <time>2020-02-24T12:12:42Z</time>
      </trkpt>
      <trkpt lat="43.97034" lon="5.23496">
        <ele>575.49</ele>
        <time>2020-02-24T12:12:47Z</time>
      </trkpt>
      <trkpt lat="43.97036" lon="5.23498">
        <ele>575.49</ele>
        <time>2020-02-24T12:12:49Z</time>
      </trkpt>
      <trkpt lat="43.97051" lon="5.23514">
        <ele>575.01</ele>
        <time>2020-02-24T12:13:03Z</time>
      </trkpt>
      <trkpt lat="43.9706" lon="5.23525">
        <ele>575.01</ele>
        <time>2020-02-24T12:13:20Z</time>
      </trkpt>
      <trkpt lat="43.97063" lon="5.23527">
        <ele>574.53</ele>
        <time>2020-02-24T12:13:38Z</time>
      </trkpt>
      <trkpt lat="43.97065" lon="5.2353">
        <ele>574.53</ele>
        <time>2020-02-24T12:13:40Z</time>
      </trkpt>
      <trkpt lat="43.97071" lon="5.23538">
        <ele>573.56</ele>
        <time>2020-02-24T12:13:47Z</time>
      </trkpt>
      <trkpt lat="43.97077" lon="5.23555">
        <ele>572.6</ele>
        <time>2020-02-24T12:14:01Z</time>
      </trkpt>
      <trkpt lat="43.97064" lon="5.23549">
        <ele>570.2</ele>
        <time>2020-02-24T12:14:17Z</time>
      </trkpt>
      <trkpt lat="43.97051" lon="5.23541">
        <ele>569.24</ele>
        <time>2020-02-24T12:14:32Z</time>
      </trkpt>
      <trkpt lat="43.97034" lon="5.23533">
        <ele>565.87</ele>
        <time>2020-02-24T12:14:49Z</time>
      </trkpt>
      <trkpt lat="43.97023" lon="5.23526">
        <ele>565.39</ele>
        <time>2020-02-24T12:15:01Z</time>
      </trkpt>
      <trkpt lat="43.9701" lon="5.23517">
        <ele>564.91</ele>
        <time>2020-02-24T12:15:12Z</time>
      </trkpt>
      <trkpt lat="43.96986" lon="5.23496">
        <ele>564.91</ele>
        <time>2020-02-24T12:15:33Z</time>
      </trkpt>
      <trkpt lat="43.96966" lon="5.23479">
        <ele>565.87</ele>
        <time>2020-02-24T12:15:53Z</time>
      </trkpt>
      <trkpt lat="43.96956" lon="5.23461">
        <ele>566.35</ele>
        <time>2020-02-24T12:16:07Z</time>
      </trkpt>
      <trkpt lat="43.96952" lon="5.23456">
        <ele>566.83</ele>
        <time>2020-02-24T12:16:12Z</time>
      </trkpt>
      <trkpt lat="43.96949" lon="5.23448">
        <ele>566.83</ele>
        <time>2020-02-24T12:16:17Z</time>
      </trkpt>
      <trkpt lat="43.96939" lon="5.23435">
        <ele>566.83</ele>
        <time>2020-02-24T12:16:30Z</time>
      </trkpt>
      <trkpt lat="43.96938" lon="5.23434">
        <ele>566.83</ele>
        <time>2020-02-24T12:16:31Z</time>
      </trkpt>
      <trkpt lat="43.96937" lon="5.23431">
        <ele>566.83</ele>
        <time>2020-02-24T12:16:33Z</time>
      </trkpt>
      <trkpt lat="43.96929" lon="5.23413">
        <ele>567.32</ele>
        <time>2020-02-24T12:16:46Z</time>
      </trkpt>
      <trkpt lat="43.96927" lon="5.23408">
        <ele>567.32</ele>
        <time>2020-02-24T12:17:07Z</time>
      </trkpt>
      <trkpt lat="43.96924" lon="5.23399">
        <ele>567.32</ele>
        <time>2020-02-24T12:17:38Z</time>
      </trkpt>
      <trkpt lat="43.96912" lon="5.2338">
        <ele>567.8</ele>
        <time>2020-02-24T12:17:54Z</time>
      </trkpt>
      <trkpt lat="43.96905" lon="5.23368">
        <ele>567.8</ele>
        <time>2020-02-24T12:18:02Z</time>
      </trkpt>
      <trkpt lat="43.96894" lon="5.23351">
        <ele>568.28</ele>
        <time>2020-02-24T12:18:18Z</time>
      </trkpt>
      <trkpt lat="43.96891" lon="5.23348">
        <ele>568.76</ele>
        <time>2020-02-24T12:18:34Z</time>
      </trkpt>
      <trkpt lat="43.96883" lon="5.23353">
        <ele>568.28</ele>
        <time>2020-02-24T12:18:41Z</time>
      </trkpt>
      <trkpt lat="43.96873" lon="5.23362">
        <ele>565.87</ele>
        <time>2020-02-24T12:18:53Z</time>
      </trkpt>
      <trkpt lat="43.96855" lon="5.23363">
        <ele>564.43</ele>
        <time>2020-02-24T12:19:10Z</time>
      </trkpt>
      <trkpt lat="43.96851" lon="5.23377">
        <ele>562.99</ele>
        <time>2020-02-24T12:19:20Z</time>
      </trkpt>
      <trkpt lat="43.9685" lon="5.23392">
        <ele>561.55</ele>
        <time>2020-02-24T12:19:30Z</time>
      </trkpt>
      <trkpt lat="43.96848" lon="5.23416">
        <ele>558.18</ele>
        <time>2020-02-24T12:19:46Z</time>
      </trkpt>
      <trkpt lat="43.96851" lon="5.23424">
        <ele>557.7</ele>
        <time>2020-02-24T12:19:52Z</time>
      </trkpt>
      <trkpt lat="43.96857" lon="5.23434">
        <ele>557.22</ele>
        <time>2020-02-24T12:20:00Z</time>
      </trkpt>
      <trkpt lat="43.96868" lon="5.23454">
        <ele>555.78</ele>
        <time>2020-02-24T12:20:16Z</time>
      </trkpt>
      <trkpt lat="43.96873" lon="5.23465">
        <ele>555.78</ele>
        <time>2020-02-24T12:20:24Z</time>
      </trkpt>
      <trkpt lat="43.96878" lon="5.23473">
        <ele>555.3</ele>
        <time>2020-02-24T12:20:29Z</time>
      </trkpt>
      <trkpt lat="43.96891" lon="5.23502">
        <ele>553.38</ele>
        <time>2020-02-24T12:20:48Z</time>
      </trkpt>
      <trkpt lat="43.96897" lon="5.23515">
        <ele>552.41</ele>
        <time>2020-02-24T12:20:57Z</time>
      </trkpt>
      <trkpt lat="43.96898" lon="5.23518">
        <ele>551.45</ele>
        <time>2020-02-24T12:20:59Z</time>
      </trkpt>
      <trkpt lat="43.96911" lon="5.2354">
        <ele>550.49</ele>
        <time>2020-02-24T12:21:17Z</time>
      </trkpt>
      <trkpt lat="43.96923" lon="5.23561">
        <ele>550.01</ele>
        <time>2020-02-24T12:21:33Z</time>
      </trkpt>
      <trkpt lat="43.96925" lon="5.23568">
        <ele>548.09</ele>
        <time>2020-02-24T12:21:49Z</time>
      </trkpt>
      <trkpt lat="43.96927" lon="5.23569">
        <ele>548.57</ele>
        <time>2020-02-24T12:22:15Z</time>
      </trkpt>
      <trkpt lat="43.96928" lon="5.23581">
        <ele>548.57</ele>
        <time>2020-02-24T12:22:35Z</time>
      </trkpt>
      <trkpt lat="43.96928" lon="5.23583">
        <ele>548.57</ele>
        <time>2020-02-24T12:22:36Z</time>
      </trkpt>
      <trkpt lat="43.96926" lon="5.23602">
        <ele>547.13</ele>
        <time>2020-02-24T12:22:54Z</time>
      </trkpt>
      <trkpt lat="43.96926" lon="5.2361">
        <ele>546.65</ele>
        <time>2020-02-24T12:23:14Z</time>
      </trkpt>
      <trkpt lat="43.96926" lon="5.23612">
        <ele>546.65</ele>
        <time>2020-02-24T12:23:41Z</time>
      </trkpt>
      <trkpt lat="43.96923" lon="5.23615">
        <ele>547.61</ele>
        <time>2020-02-24T12:24:08Z</time>
      </trkpt>
      <trkpt lat="43.96914" lon="5.23622">
        <ele>547.13</ele>
        <time>2020-02-24T12:24:27Z</time>
      </trkpt>
      <trkpt lat="43.96899" lon="5.23635">
        <ele>543.76</ele>
        <time>2020-02-24T12:24:43Z</time>
      </trkpt>
      <trkpt lat="43.96893" lon="5.23641">
        <ele>541.84</ele>
        <time>2020-02-24T12:25:01Z</time>
      </trkpt>
      <trkpt lat="43.96874" lon="5.23652">
        <ele>539.92</ele>
        <time>2020-02-24T12:25:24Z</time>
      </trkpt>
      <trkpt lat="43.96864" lon="5.2366">
        <ele>537.99</ele>
        <time>2020-02-24T12:25:43Z</time>
      </trkpt>
      <trkpt lat="43.96852" lon="5.23668">
        <ele>537.99</ele>
        <time>2020-02-24T12:25:55Z</time>
      </trkpt>
      <trkpt lat="43.96845" lon="5.23669">
        <ele>537.03</ele>
        <time>2020-02-24T12:26:01Z</time>
      </trkpt>
      <trkpt lat="43.96826" lon="5.23667">
        <ele>534.63</ele>
        <time>2020-02-24T12:26:20Z</time>
      </trkpt>
      <trkpt lat="43.96819" lon="5.23658">
        <ele>533.19</ele>
        <time>2020-02-24T12:26:30Z</time>
      </trkpt>
      <trkpt lat="43.96807" lon="5.2365">
        <ele>531.27</ele>
        <time>2020-02-24T12:26:42Z</time>
      </trkpt>
      <trkpt lat="43.9679" lon="5.2366">
        <ele>529.82</ele>
        <time>2020-02-24T12:26:57Z</time>
      </trkpt>
      <trkpt lat="43.96775" lon="5.23673">
        <ele>526.94</ele>
        <time>2020-02-24T12:27:17Z</time>
      </trkpt>
      <trkpt lat="43.96762" lon="5.23684">
        <ele>525.02</ele>
        <time>2020-02-24T12:27:34Z</time>
      </trkpt>
      <trkpt lat="43.96748" lon="5.23698">
        <ele>522.13</ele>
        <time>2020-02-24T12:27:51Z</time>
      </trkpt>
      <trkpt lat="43.96742" lon="5.23706">
        <ele>521.65</ele>
        <time>2020-02-24T12:28:07Z</time>
      </trkpt>
      <trkpt lat="43.96741" lon="5.23707">
        <ele>520.69</ele>
        <time>2020-02-24T12:29:19Z</time>
      </trkpt>
      <trkpt lat="43.96737" lon="5.23705">
        <ele>521.65</ele>
        <time>2020-02-24T12:29:52Z</time>
      </trkpt>
      <trkpt lat="43.96735" lon="5.23704">
        <ele>521.65</ele>
        <time>2020-02-24T12:29:57Z</time>
      </trkpt>
      <trkpt lat="43.9673" lon="5.23704">
        <ele>521.17</ele>
        <time>2020-02-24T12:30:01Z</time>
      </trkpt>
      <trkpt lat="43.96714" lon="5.23715">
        <ele>518.77</ele>
        <time>2020-02-24T12:30:19Z</time>
      </trkpt>
      <trkpt lat="43.96711" lon="5.23722">
        <ele>519.25</ele>
        <time>2020-02-24T12:30:44Z</time>
      </trkpt>
      <trkpt lat="43.96715" lon="5.23724">
        <ele>519.73</ele>
        <time>2020-02-24T12:31:08Z</time>
      </trkpt>
      <trkpt lat="43.96709" lon="5.23725">
        <ele>519.25</ele>
        <time>2020-02-24T12:31:34Z</time>
      </trkpt>
      <trkpt lat="43.96695" lon="5.2373">
        <ele>517.81</ele>
        <time>2020-02-24T12:31:49Z</time>
      </trkpt>
      <trkpt lat="43.96679" lon="5.23742">
        <ele>515.4</ele>
        <time>2020-02-24T12:32:07Z</time>
      </trkpt>
      <trkpt lat="43.96664" lon="5.23754">
        <ele>513.96</ele>
        <time>2020-02-24T12:32:23Z</time>
      </trkpt>
      <trkpt lat="43.96643" lon="5.23768">
        <ele>512.04</ele>
        <time>2020-02-24T12:32:41Z</time>
      </trkpt>
      <trkpt lat="43.9663" lon="5.23774">
        <ele>511.08</ele>
        <time>2020-02-24T12:32:54Z</time>
      </trkpt>
      <trkpt lat="43.96618" lon="5.23774">
        <ele>509.64</ele>
        <time>2020-02-24T12:33:05Z</time>
      </trkpt>
      <trkpt lat="43.96607" lon="5.23775">
        <ele>508.19</ele>
        <time>2020-02-24T12:33:21Z</time>
      </trkpt>
      <trkpt lat="43.96589" lon="5.23772">
        <ele>504.83</ele>
        <time>2020-02-24T12:33:39Z</time>
      </trkpt>
      <trkpt lat="43.96573" lon="5.23767">
        <ele>502.43</ele>
        <time>2020-02-24T12:33:52Z</time>
      </trkpt>
      <trkpt lat="43.96564" lon="5.23765">
        <ele>502.43</ele>
        <time>2020-02-24T12:33:59Z</time>
      </trkpt>
      <trkpt lat="43.96548" lon="5.23786">
        <ele>499.54</ele>
        <time>2020-02-24T12:34:17Z</time>
      </trkpt>
      <trkpt lat="43.9653" lon="5.23807">
        <ele>497.62</ele>
        <time>2020-02-24T12:34:37Z</time>
      </trkpt>
      <trkpt lat="43.96512" lon="5.23815">
        <ele>496.66</ele>
        <time>2020-02-24T12:34:54Z</time>
      </trkpt>
      <trkpt lat="43.96491" lon="5.23817">
        <ele>495.7</ele>
        <time>2020-02-24T12:35:10Z</time>
      </trkpt>
      <trkpt lat="43.9647" lon="5.23823">
        <ele>494.74</ele>
        <time>2020-02-24T12:35:27Z</time>
      </trkpt>
      <trkpt lat="43.96452" lon="5.2383">
        <ele>493.29</ele>
        <time>2020-02-24T12:35:42Z</time>
      </trkpt>
      <trkpt lat="43.96431" lon="5.2385">
        <ele>492.81</ele>
        <time>2020-02-24T12:36:01Z</time>
      </trkpt>
      <trkpt lat="43.9643" lon="5.23852">
        <ele>492.81</ele>
        <time>2020-02-24T12:36:03Z</time>
      </trkpt>
      <trkpt lat="43.96429" lon="5.23859">
        <ele>492.81</ele>
        <time>2020-02-24T12:36:07Z</time>
      </trkpt>
      <trkpt lat="43.96431" lon="5.23889">
        <ele>490.41</ele>
        <time>2020-02-24T12:36:24Z</time>
      </trkpt>
      <trkpt lat="43.96427" lon="5.23896">
        <ele>490.41</ele>
        <time>2020-02-24T12:36:28Z</time>
      </trkpt>
      <trkpt lat="43.9642" lon="5.239">
        <ele>489.93</ele>
        <time>2020-02-24T12:36:34Z</time>
      </trkpt>
      <trkpt lat="43.96395" lon="5.23902">
        <ele>490.41</ele>
        <time>2020-02-24T12:36:51Z</time>
      </trkpt>
      <trkpt lat="43.96373" lon="5.23912">
        <ele>490.89</ele>
        <time>2020-02-24T12:37:09Z</time>
      </trkpt>
      <trkpt lat="43.96363" lon="5.2392">
        <ele>491.85</ele>
        <time>2020-02-24T12:37:19Z</time>
      </trkpt>
      <trkpt lat="43.96346" lon="5.23936">
        <ele>493.29</ele>
        <time>2020-02-24T12:37:36Z</time>
      </trkpt>
      <trkpt lat="43.96327" lon="5.23957">
        <ele>495.7</ele>
        <time>2020-02-24T12:37:57Z</time>
      </trkpt>
      <trkpt lat="43.96308" lon="5.23974">
        <ele>498.58</ele>
        <time>2020-02-24T12:38:17Z</time>
      </trkpt>
      <trkpt lat="43.96291" lon="5.23989">
        <ele>500.02</ele>
        <time>2020-02-24T12:38:35Z</time>
      </trkpt>
      <trkpt lat="43.96275" lon="5.24001">
        <ele>502.43</ele>
        <time>2020-02-24T12:38:51Z</time>
      </trkpt>
      <trkpt lat="43.96261" lon="5.24007">
        <ele>504.83</ele>
        <time>2020-02-24T12:39:07Z</time>
      </trkpt>
      <trkpt lat="43.96254" lon="5.24008">
        <ele>505.79</ele>
        <time>2020-02-24T12:39:23Z</time>
      </trkpt>
      <trkpt lat="43.96241" lon="5.24011">
        <ele>507.23</ele>
        <time>2020-02-24T12:39:43Z</time>
      </trkpt>
      <trkpt lat="43.96226" lon="5.24013">
        <ele>510.6</ele>
        <time>2020-02-24T12:39:58Z</time>
      </trkpt>
      <trkpt lat="43.9621" lon="5.24006">
        <ele>513.48</ele>
        <time>2020-02-24T12:40:15Z</time>
      </trkpt>
      <trkpt lat="43.96195" lon="5.24005">
        <ele>516.37</ele>
        <time>2020-02-24T12:40:31Z</time>
      </trkpt>
      <trkpt lat="43.96185" lon="5.24018">
        <ele>519.73</ele>
        <time>2020-02-24T12:40:45Z</time>
      </trkpt>
      <trkpt lat="43.96182" lon="5.24031">
        <ele>521.17</ele>
        <time>2020-02-24T12:40:54Z</time>
      </trkpt>
      <trkpt lat="43.9618" lon="5.24039">
        <ele>521.17</ele>
        <time>2020-02-24T12:40:58Z</time>
      </trkpt>
      <trkpt lat="43.96173" lon="5.24065">
        <ele>523.09</ele>
        <time>2020-02-24T12:41:16Z</time>
      </trkpt>
      <trkpt lat="43.9616" lon="5.24086">
        <ele>525.5</ele>
        <time>2020-02-24T12:41:39Z</time>
      </trkpt>
      <trkpt lat="43.96156" lon="5.2409">
        <ele>525.98</ele>
        <time>2020-02-24T12:41:43Z</time>
      </trkpt>
      <trkpt lat="43.96144" lon="5.24105">
        <ele>526.94</ele>
        <time>2020-02-24T12:41:58Z</time>
      </trkpt>
      <trkpt lat="43.96133" lon="5.24114">
        <ele>526.94</ele>
        <time>2020-02-24T12:42:17Z</time>
      </trkpt>
      <trkpt lat="43.96124" lon="5.2412">
        <ele>527.9</ele>
        <time>2020-02-24T12:42:25Z</time>
      </trkpt>
      <trkpt lat="43.96112" lon="5.2413">
        <ele>528.38</ele>
        <time>2020-02-24T12:42:36Z</time>
      </trkpt>
      <trkpt lat="43.9611" lon="5.24132">
        <ele>528.38</ele>
        <time>2020-02-24T12:42:38Z</time>
      </trkpt>
      <trkpt lat="43.96093" lon="5.24137">
        <ele>528.38</ele>
        <time>2020-02-24T12:42:57Z</time>
      </trkpt>
      <trkpt lat="43.96083" lon="5.24145">
        <ele>528.38</ele>
        <time>2020-02-24T12:43:16Z</time>
      </trkpt>
      <trkpt lat="43.96072" lon="5.24153">
        <ele>528.86</ele>
        <time>2020-02-24T12:43:34Z</time>
      </trkpt>
      <trkpt lat="43.96075" lon="5.24159">
        <ele>528.86</ele>
        <time>2020-02-24T12:43:50Z</time>
      </trkpt>
      <trkpt lat="43.96076" lon="5.24165">
        <ele>528.86</ele>
        <time>2020-02-24T12:43:55Z</time>
      </trkpt>
      <trkpt lat="43.96082" lon="5.24189">
        <ele>528.38</ele>
        <time>2020-02-24T12:44:12Z</time>
      </trkpt>
      <trkpt lat="43.96085" lon="5.24211">
        <ele>528.38</ele>
        <time>2020-02-24T12:44:28Z</time>
      </trkpt>
      <trkpt lat="43.96087" lon="5.24215">
        <ele>528.38</ele>
        <time>2020-02-24T12:44:31Z</time>
      </trkpt>
      <trkpt lat="43.96093" lon="5.24231">
        <ele>527.42</ele>
        <time>2020-02-24T12:44:45Z</time>
      </trkpt>
      <trkpt lat="43.96093" lon="5.24241">
        <ele>526.46</ele>
        <time>2020-02-24T12:44:54Z</time>
      </trkpt>
      <trkpt lat="43.9609" lon="5.24244">
        <ele>526.46</ele>
        <time>2020-02-24T12:44:57Z</time>
      </trkpt>
      <trkpt lat="43.96088" lon="5.24245">
        <ele>526.46</ele>
        <time>2020-02-24T12:44:59Z</time>
      </trkpt>
      <trkpt lat="43.96082" lon="5.24268">
        <ele>525.5</ele>
        <time>2020-02-24T12:45:18Z</time>
      </trkpt>
      <trkpt lat="43.96086" lon="5.24269">
        <ele>525.98</ele>
        <time>2020-02-24T12:45:23Z</time>
      </trkpt>
      <trkpt lat="43.96092" lon="5.24276">
        <ele>525.98</ele>
        <time>2020-02-24T12:45:29Z</time>
      </trkpt>
      <trkpt lat="43.96103" lon="5.24287">
        <ele>525.98</ele>
        <time>2020-02-24T12:45:40Z</time>
      </trkpt>
      <trkpt lat="43.96102" lon="5.24295">
        <ele>526.46</ele>
        <time>2020-02-24T12:45:42Z</time>
      </trkpt>
      <trkpt lat="43.96105" lon="5.24313">
        <ele>525.98</ele>
        <time>2020-02-24T12:45:56Z</time>
      </trkpt>
      <trkpt lat="43.96104" lon="5.24324">
        <ele>525.5</ele>
        <time>2020-02-24T12:46:09Z</time>
      </trkpt>
      <trkpt lat="43.96099" lon="5.24358">
        <ele>523.58</ele>
        <time>2020-02-24T12:46:27Z</time>
      </trkpt>
      <trkpt lat="43.96094" lon="5.24389">
        <ele>521.65</ele>
        <time>2020-02-24T12:46:45Z</time>
      </trkpt>
      <trkpt lat="43.9609" lon="5.24414">
        <ele>520.21</ele>
        <time>2020-02-24T12:47:01Z</time>
      </trkpt>
      <trkpt lat="43.96086" lon="5.24441">
        <ele>518.77</ele>
        <time>2020-02-24T12:47:18Z</time>
      </trkpt>
      <trkpt lat="43.96083" lon="5.24471">
        <ele>517.81</ele>
        <time>2020-02-24T12:47:35Z</time>
      </trkpt>
      <trkpt lat="43.96079" lon="5.24498">
        <ele>516.85</ele>
        <time>2020-02-24T12:47:50Z</time>
      </trkpt>
      <trkpt lat="43.96075" lon="5.24529">
        <ele>515.4</ele>
        <time>2020-02-24T12:48:08Z</time>
      </trkpt>
      <trkpt lat="43.96072" lon="5.24554">
        <ele>513.96</ele>
        <time>2020-02-24T12:48:24Z</time>
      </trkpt>
      <trkpt lat="43.96067" lon="5.24584">
        <ele>513</ele>
        <time>2020-02-24T12:48:41Z</time>
      </trkpt>
      <trkpt lat="43.96063" lon="5.24614">
        <ele>513</ele>
        <time>2020-02-24T12:48:58Z</time>
      </trkpt>
      <trkpt lat="43.96059" lon="5.24646">
        <ele>512.52</ele>
        <time>2020-02-24T12:49:17Z</time>
      </trkpt>
      <trkpt lat="43.96057" lon="5.24675">
        <ele>513</ele>
        <time>2020-02-24T12:49:34Z</time>
      </trkpt>
      <trkpt lat="43.96051" lon="5.24709">
        <ele>513</ele>
        <time>2020-02-24T12:49:53Z</time>
      </trkpt>
      <trkpt lat="43.9605" lon="5.24717">
        <ele>513.48</ele>
        <time>2020-02-24T12:49:58Z</time>
      </trkpt>
      <trkpt lat="43.96045" lon="5.24736">
        <ele>513</ele>
        <time>2020-02-24T12:50:11Z</time>
      </trkpt>
      <trkpt lat="43.96037" lon="5.24742">
        <ele>512.52</ele>
        <time>2020-02-24T12:50:25Z</time>
      </trkpt>
      <trkpt lat="43.96036" lon="5.24742">
        <ele>512.52</ele>
        <time>2020-02-24T12:50:26Z</time>
      </trkpt>
      <trkpt lat="43.9603" lon="5.24742">
        <ele>512.52</ele>
        <time>2020-02-24T12:50:30Z</time>
      </trkpt>
      <trkpt lat="43.96023" lon="5.24742">
        <ele>512.04</ele>
        <time>2020-02-24T12:50:36Z</time>
      </trkpt>
    </trkseg>
  </trk>
</gpx>